<?xml version="1.0" encoding="UTF-8" standalone="no" ?>
<gpx xmlns="http://www.topografix.com/GPX/1/1" xmlns:xsi="http://www.w3.org/2001/XMLSchema-instance" xsi:schemaLocation="http://www.topografix.com/GPX/1/1 http://www.topografix.com/GPX/1/1/gpx.xsd" version="1.1" creator="VisuGPX - https://www.visugpx.com">
  <metadata>
    <name>WEPION</name>
    <desc><![CDATA[MARCHE FFMBP WEPION 6 JUILLET 2016]]></desc>
  </metadata>
  <trk>
    <name><![CDATA[2016-07-06 15:38:16]]></name>
    <trkseg>
      <trkpt lat="50.41929" lon="4.87145">
        <ele>136.16</ele>
        <time>2016-07-06T08:00:49Z</time>
      </trkpt>
      <trkpt lat="50.41929" lon="4.87144">
        <ele>136.16</ele>
        <time>2016-07-06T08:00:50Z</time>
      </trkpt>
      <trkpt lat="50.41931" lon="4.87142">
        <ele>124.15</ele>
        <time>2016-07-06T08:00:53Z</time>
      </trkpt>
      <trkpt lat="50.41931" lon="4.87142">
        <ele>124.15</ele>
        <time>2016-07-06T08:00:54Z</time>
      </trkpt>
      <trkpt lat="50.41932" lon="4.8714">
        <ele>124.15</ele>
        <time>2016-07-06T08:01:08Z</time>
      </trkpt>
      <trkpt lat="50.4193" lon="4.87142">
        <ele>124.15</ele>
        <time>2016-07-06T08:01:34Z</time>
      </trkpt>
      <trkpt lat="50.41928" lon="4.87144">
        <ele>124.15</ele>
        <time>2016-07-06T08:02:03Z</time>
      </trkpt>
      <trkpt lat="50.4193" lon="4.87143">
        <ele>124.15</ele>
        <time>2016-07-06T08:02:27Z</time>
      </trkpt>
      <trkpt lat="50.4193" lon="4.8714">
        <ele>124.15</ele>
        <time>2016-07-06T08:02:52Z</time>
      </trkpt>
      <trkpt lat="50.41925" lon="4.87146">
        <ele>124.15</ele>
        <time>2016-07-06T08:03:19Z</time>
      </trkpt>
      <trkpt lat="50.41927" lon="4.87145">
        <ele>124.15</ele>
        <time>2016-07-06T08:03:49Z</time>
      </trkpt>
      <trkpt lat="50.41928" lon="4.87141">
        <ele>124.63</ele>
        <time>2016-07-06T08:04:12Z</time>
      </trkpt>
      <trkpt lat="50.41921" lon="4.87144">
        <ele>124.63</ele>
        <time>2016-07-06T08:04:27Z</time>
      </trkpt>
      <trkpt lat="50.41911" lon="4.87145">
        <ele>124.15</ele>
        <time>2016-07-06T08:04:50Z</time>
      </trkpt>
      <trkpt lat="50.41903" lon="4.87147">
        <ele>124.15</ele>
        <time>2016-07-06T08:05:13Z</time>
      </trkpt>
      <trkpt lat="50.41902" lon="4.87146">
        <ele>124.15</ele>
        <time>2016-07-06T08:05:38Z</time>
      </trkpt>
      <trkpt lat="50.41928" lon="4.8714">
        <ele>124.15</ele>
        <time>2016-07-06T08:06:01Z</time>
      </trkpt>
      <trkpt lat="50.41929" lon="4.87139">
        <ele>123.67</ele>
        <time>2016-07-06T08:06:20Z</time>
      </trkpt>
      <trkpt lat="50.4193" lon="4.8714">
        <ele>123.67</ele>
        <time>2016-07-06T08:06:40Z</time>
      </trkpt>
      <trkpt lat="50.41928" lon="4.87138">
        <ele>123.67</ele>
        <time>2016-07-06T08:06:56Z</time>
      </trkpt>
      <trkpt lat="50.41928" lon="4.87139">
        <ele>123.67</ele>
        <time>2016-07-06T08:07:21Z</time>
      </trkpt>
      <trkpt lat="50.41928" lon="4.87141">
        <ele>122.71</ele>
        <time>2016-07-06T08:07:39Z</time>
      </trkpt>
      <trkpt lat="50.41929" lon="4.87146">
        <ele>122.71</ele>
        <time>2016-07-06T08:07:59Z</time>
      </trkpt>
      <trkpt lat="50.41931" lon="4.87143">
        <ele>122.22</ele>
        <time>2016-07-06T08:08:30Z</time>
      </trkpt>
      <trkpt lat="50.41934" lon="4.87142">
        <ele>122.22</ele>
        <time>2016-07-06T08:08:34Z</time>
      </trkpt>
      <trkpt lat="50.41959" lon="4.87147">
        <ele>122.22</ele>
        <time>2016-07-06T08:08:50Z</time>
      </trkpt>
      <trkpt lat="50.41927" lon="4.87143">
        <ele>122.22</ele>
        <time>2016-07-06T08:09:18Z</time>
      </trkpt>
      <trkpt lat="50.41928" lon="4.87146">
        <ele>122.22</ele>
        <time>2016-07-06T08:09:53Z</time>
      </trkpt>
      <trkpt lat="50.41929" lon="4.87145">
        <ele>122.22</ele>
        <time>2016-07-06T08:10:26Z</time>
      </trkpt>
      <trkpt lat="50.41928" lon="4.87143">
        <ele>122.22</ele>
        <time>2016-07-06T08:10:44Z</time>
      </trkpt>
      <trkpt lat="50.41923" lon="4.87147">
        <ele>121.74</ele>
        <time>2016-07-06T08:11:02Z</time>
      </trkpt>
      <trkpt lat="50.41918" lon="4.87148">
        <ele>123.19</ele>
        <time>2016-07-06T08:11:22Z</time>
      </trkpt>
      <trkpt lat="50.41917" lon="4.87149">
        <ele>121.74</ele>
        <time>2016-07-06T08:11:28Z</time>
      </trkpt>
      <trkpt lat="50.41909" lon="4.87136">
        <ele>121.74</ele>
        <time>2016-07-06T08:11:53Z</time>
      </trkpt>
      <trkpt lat="50.41922" lon="4.87125">
        <ele>121.74</ele>
        <time>2016-07-06T08:12:14Z</time>
      </trkpt>
      <trkpt lat="50.41926" lon="4.87139">
        <ele>121.74</ele>
        <time>2016-07-06T08:12:41Z</time>
      </trkpt>
      <trkpt lat="50.41925" lon="4.87147">
        <ele>121.26</ele>
        <time>2016-07-06T08:13:04Z</time>
      </trkpt>
      <trkpt lat="50.41919" lon="4.87143">
        <ele>121.26</ele>
        <time>2016-07-06T08:13:31Z</time>
      </trkpt>
      <trkpt lat="50.41922" lon="4.87149">
        <ele>121.26</ele>
        <time>2016-07-06T08:13:54Z</time>
      </trkpt>
      <trkpt lat="50.41917" lon="4.87152">
        <ele>120.78</ele>
        <time>2016-07-06T08:14:20Z</time>
      </trkpt>
      <trkpt lat="50.41918" lon="4.87152">
        <ele>120.3</ele>
        <time>2016-07-06T08:14:49Z</time>
      </trkpt>
      <trkpt lat="50.41911" lon="4.8716">
        <ele>119.82</ele>
        <time>2016-07-06T08:15:17Z</time>
      </trkpt>
      <trkpt lat="50.41907" lon="4.87154">
        <ele>120.78</ele>
        <time>2016-07-06T08:15:48Z</time>
      </trkpt>
      <trkpt lat="50.41904" lon="4.87158">
        <ele>119.82</ele>
        <time>2016-07-06T08:16:14Z</time>
      </trkpt>
      <trkpt lat="50.41898" lon="4.87134">
        <ele>119.34</ele>
        <time>2016-07-06T08:16:33Z</time>
      </trkpt>
      <trkpt lat="50.419" lon="4.87114">
        <ele>120.78</ele>
        <time>2016-07-06T08:16:43Z</time>
      </trkpt>
      <trkpt lat="50.41896" lon="4.8708">
        <ele>121.26</ele>
        <time>2016-07-06T08:17:05Z</time>
      </trkpt>
      <trkpt lat="50.41892" lon="4.87045">
        <ele>122.22</ele>
        <time>2016-07-06T08:17:29Z</time>
      </trkpt>
      <trkpt lat="50.41881" lon="4.87012">
        <ele>123.19</ele>
        <time>2016-07-06T08:17:52Z</time>
      </trkpt>
      <trkpt lat="50.41875" lon="4.86977">
        <ele>124.63</ele>
        <time>2016-07-06T08:18:17Z</time>
      </trkpt>
      <trkpt lat="50.41864" lon="4.86967">
        <ele>125.59</ele>
        <time>2016-07-06T08:18:37Z</time>
      </trkpt>
      <trkpt lat="50.41839" lon="4.8698">
        <ele>124.15</ele>
        <time>2016-07-06T08:18:58Z</time>
      </trkpt>
      <trkpt lat="50.41814" lon="4.86984">
        <ele>123.19</ele>
        <time>2016-07-06T08:19:25Z</time>
      </trkpt>
      <trkpt lat="50.41787" lon="4.86976">
        <ele>121.74</ele>
        <time>2016-07-06T08:19:50Z</time>
      </trkpt>
      <trkpt lat="50.41779" lon="4.87">
        <ele>120.3</ele>
        <time>2016-07-06T08:20:09Z</time>
      </trkpt>
      <trkpt lat="50.41778" lon="4.8704">
        <ele>118.86</ele>
        <time>2016-07-06T08:20:31Z</time>
      </trkpt>
      <trkpt lat="50.41762" lon="4.87053">
        <ele>118.38</ele>
        <time>2016-07-06T08:20:49Z</time>
      </trkpt>
      <trkpt lat="50.41766" lon="4.87087">
        <ele>116.94</ele>
        <time>2016-07-06T08:21:12Z</time>
      </trkpt>
      <trkpt lat="50.41778" lon="4.87134">
        <ele>115.5</ele>
        <time>2016-07-06T08:21:36Z</time>
      </trkpt>
      <trkpt lat="50.41786" lon="4.87169">
        <ele>113.09</ele>
        <time>2016-07-06T08:22:00Z</time>
      </trkpt>
      <trkpt lat="50.41778" lon="4.87196">
        <ele>111.65</ele>
        <time>2016-07-06T08:22:19Z</time>
      </trkpt>
      <trkpt lat="50.41775" lon="4.87238">
        <ele>109.25</ele>
        <time>2016-07-06T08:22:44Z</time>
      </trkpt>
      <trkpt lat="50.41776" lon="4.87282">
        <ele>106.84</ele>
        <time>2016-07-06T08:23:08Z</time>
      </trkpt>
      <trkpt lat="50.41778" lon="4.87327">
        <ele>104.44</ele>
        <time>2016-07-06T08:23:32Z</time>
      </trkpt>
      <trkpt lat="50.4178" lon="4.87357">
        <ele>102.52</ele>
        <time>2016-07-06T08:23:57Z</time>
      </trkpt>
      <trkpt lat="50.41759" lon="4.87389">
        <ele>100.11</ele>
        <time>2016-07-06T08:24:21Z</time>
      </trkpt>
      <trkpt lat="50.41752" lon="4.87401">
        <ele>99.63</ele>
        <time>2016-07-06T08:24:42Z</time>
      </trkpt>
      <trkpt lat="50.41754" lon="4.87422">
        <ele>97.71</ele>
        <time>2016-07-06T08:25:04Z</time>
      </trkpt>
      <trkpt lat="50.41752" lon="4.87451">
        <ele>95.79</ele>
        <time>2016-07-06T08:25:28Z</time>
      </trkpt>
      <trkpt lat="50.4175" lon="4.87478">
        <ele>92.9</ele>
        <time>2016-07-06T08:25:49Z</time>
      </trkpt>
      <trkpt lat="50.41742" lon="4.87514">
        <ele>90.5</ele>
        <time>2016-07-06T08:26:12Z</time>
      </trkpt>
      <trkpt lat="50.4172" lon="4.87528">
        <ele>88.58</ele>
        <time>2016-07-06T08:26:32Z</time>
      </trkpt>
      <trkpt lat="50.41686" lon="4.87539">
        <ele>88.1</ele>
        <time>2016-07-06T08:26:59Z</time>
      </trkpt>
      <trkpt lat="50.41668" lon="4.87574">
        <ele>86.18</ele>
        <time>2016-07-06T08:27:26Z</time>
      </trkpt>
      <trkpt lat="50.4165" lon="4.87603">
        <ele>84.73</ele>
        <time>2016-07-06T08:27:50Z</time>
      </trkpt>
      <trkpt lat="50.41651" lon="4.87641">
        <ele>84.25</ele>
        <time>2016-07-06T08:28:13Z</time>
      </trkpt>
      <trkpt lat="50.41677" lon="4.87658">
        <ele>84.25</ele>
        <time>2016-07-06T08:28:38Z</time>
      </trkpt>
      <trkpt lat="50.41677" lon="4.87696">
        <ele>83.77</ele>
        <time>2016-07-06T08:29:00Z</time>
      </trkpt>
      <trkpt lat="50.41665" lon="4.87736">
        <ele>83.29</ele>
        <time>2016-07-06T08:29:24Z</time>
      </trkpt>
      <trkpt lat="50.41647" lon="4.87772">
        <ele>83.77</ele>
        <time>2016-07-06T08:29:49Z</time>
      </trkpt>
      <trkpt lat="50.41615" lon="4.87783">
        <ele>82.81</ele>
        <time>2016-07-06T08:30:15Z</time>
      </trkpt>
      <trkpt lat="50.41614" lon="4.87807">
        <ele>82.33</ele>
        <time>2016-07-06T08:30:33Z</time>
      </trkpt>
      <trkpt lat="50.4161" lon="4.87846">
        <ele>82.33</ele>
        <time>2016-07-06T08:30:58Z</time>
      </trkpt>
      <trkpt lat="50.41614" lon="4.87865">
        <ele>83.77</ele>
        <time>2016-07-06T08:31:09Z</time>
      </trkpt>
      <trkpt lat="50.41611" lon="4.87916">
        <ele>83.77</ele>
        <time>2016-07-06T08:31:37Z</time>
      </trkpt>
      <trkpt lat="50.416" lon="4.87939">
        <ele>82.33</ele>
        <time>2016-07-06T08:32:00Z</time>
      </trkpt>
      <trkpt lat="50.41607" lon="4.87933">
        <ele>82.33</ele>
        <time>2016-07-06T08:32:28Z</time>
      </trkpt>
      <trkpt lat="50.41611" lon="4.87936">
        <ele>83.77</ele>
        <time>2016-07-06T08:32:43Z</time>
      </trkpt>
      <trkpt lat="50.41612" lon="4.87941">
        <ele>82.81</ele>
        <time>2016-07-06T08:33:11Z</time>
      </trkpt>
      <trkpt lat="50.41604" lon="4.87939">
        <ele>82.81</ele>
        <time>2016-07-06T08:33:39Z</time>
      </trkpt>
      <trkpt lat="50.41602" lon="4.87942">
        <ele>82.81</ele>
        <time>2016-07-06T08:34:12Z</time>
      </trkpt>
      <trkpt lat="50.41602" lon="4.87942">
        <ele>82.81</ele>
        <time>2016-07-06T08:34:42Z</time>
      </trkpt>
      <trkpt lat="50.41599" lon="4.87968">
        <ele>82.81</ele>
        <time>2016-07-06T08:35:03Z</time>
      </trkpt>
      <trkpt lat="50.41597" lon="4.87978">
        <ele>83.29</ele>
        <time>2016-07-06T08:35:23Z</time>
      </trkpt>
      <trkpt lat="50.416" lon="4.87967">
        <ele>82.81</ele>
        <time>2016-07-06T08:35:42Z</time>
      </trkpt>
      <trkpt lat="50.41613" lon="4.87951">
        <ele>82.81</ele>
        <time>2016-07-06T08:36:02Z</time>
      </trkpt>
      <trkpt lat="50.41629" lon="4.87922">
        <ele>82.81</ele>
        <time>2016-07-06T08:36:23Z</time>
      </trkpt>
      <trkpt lat="50.41641" lon="4.87903">
        <ele>84.25</ele>
        <time>2016-07-06T08:36:42Z</time>
      </trkpt>
      <trkpt lat="50.41668" lon="4.87894">
        <ele>83.29</ele>
        <time>2016-07-06T08:37:03Z</time>
      </trkpt>
      <trkpt lat="50.4168" lon="4.87921">
        <ele>83.29</ele>
        <time>2016-07-06T08:37:22Z</time>
      </trkpt>
      <trkpt lat="50.41685" lon="4.87964">
        <ele>82.81</ele>
        <time>2016-07-06T08:37:48Z</time>
      </trkpt>
      <trkpt lat="50.41702" lon="4.88">
        <ele>82.33</ele>
        <time>2016-07-06T08:38:12Z</time>
      </trkpt>
      <trkpt lat="50.41692" lon="4.88022">
        <ele>81.85</ele>
        <time>2016-07-06T08:38:32Z</time>
      </trkpt>
      <trkpt lat="50.41665" lon="4.88055">
        <ele>81.85</ele>
        <time>2016-07-06T08:38:58Z</time>
      </trkpt>
      <trkpt lat="50.41645" lon="4.88076">
        <ele>81.85</ele>
        <time>2016-07-06T08:39:24Z</time>
      </trkpt>
      <trkpt lat="50.4162" lon="4.88097">
        <ele>81.85</ele>
        <time>2016-07-06T08:39:49Z</time>
      </trkpt>
      <trkpt lat="50.41595" lon="4.88125">
        <ele>81.85</ele>
        <time>2016-07-06T08:40:15Z</time>
      </trkpt>
      <trkpt lat="50.41569" lon="4.88145">
        <ele>81.85</ele>
        <time>2016-07-06T08:40:41Z</time>
      </trkpt>
      <trkpt lat="50.41541" lon="4.88169">
        <ele>81.85</ele>
        <time>2016-07-06T08:41:06Z</time>
      </trkpt>
      <trkpt lat="50.41519" lon="4.88181">
        <ele>81.85</ele>
        <time>2016-07-06T08:41:28Z</time>
      </trkpt>
      <trkpt lat="50.41497" lon="4.88207">
        <ele>81.37</ele>
        <time>2016-07-06T08:41:49Z</time>
      </trkpt>
      <trkpt lat="50.4146" lon="4.88223">
        <ele>81.37</ele>
        <time>2016-07-06T08:42:17Z</time>
      </trkpt>
      <trkpt lat="50.41434" lon="4.88244">
        <ele>81.37</ele>
        <time>2016-07-06T08:42:45Z</time>
      </trkpt>
      <trkpt lat="50.41408" lon="4.88255">
        <ele>81.37</ele>
        <time>2016-07-06T08:43:09Z</time>
      </trkpt>
      <trkpt lat="50.41375" lon="4.88266">
        <ele>81.37</ele>
        <time>2016-07-06T08:43:35Z</time>
      </trkpt>
      <trkpt lat="50.41348" lon="4.88267">
        <ele>81.37</ele>
        <time>2016-07-06T08:44:01Z</time>
      </trkpt>
      <trkpt lat="50.41339" lon="4.88268">
        <ele>81.37</ele>
        <time>2016-07-06T08:44:09Z</time>
      </trkpt>
      <trkpt lat="50.41303" lon="4.88273">
        <ele>81.37</ele>
        <time>2016-07-06T08:44:40Z</time>
      </trkpt>
      <trkpt lat="50.41288" lon="4.88277">
        <ele>81.37</ele>
        <time>2016-07-06T08:45:02Z</time>
      </trkpt>
      <trkpt lat="50.41289" lon="4.88277">
        <ele>82.81</ele>
        <time>2016-07-06T08:45:06Z</time>
      </trkpt>
      <trkpt lat="50.41289" lon="4.88279">
        <ele>81.85</ele>
        <time>2016-07-06T08:45:36Z</time>
      </trkpt>
      <trkpt lat="50.41287" lon="4.88274">
        <ele>82.81</ele>
        <time>2016-07-06T08:46:03Z</time>
      </trkpt>
      <trkpt lat="50.41288" lon="4.88274">
        <ele>82.81</ele>
        <time>2016-07-06T08:46:32Z</time>
      </trkpt>
      <trkpt lat="50.41278" lon="4.88275">
        <ele>82.81</ele>
        <time>2016-07-06T08:46:54Z</time>
      </trkpt>
      <trkpt lat="50.41248" lon="4.88274">
        <ele>81.37</ele>
        <time>2016-07-06T08:47:20Z</time>
      </trkpt>
      <trkpt lat="50.41234" lon="4.88279">
        <ele>82.33</ele>
        <time>2016-07-06T08:47:29Z</time>
      </trkpt>
      <trkpt lat="50.41207" lon="4.88288">
        <ele>82.33</ele>
        <time>2016-07-06T08:47:54Z</time>
      </trkpt>
      <trkpt lat="50.41175" lon="4.88299">
        <ele>82.33</ele>
        <time>2016-07-06T08:48:20Z</time>
      </trkpt>
      <trkpt lat="50.41147" lon="4.88308">
        <ele>82.33</ele>
        <time>2016-07-06T08:48:49Z</time>
      </trkpt>
      <trkpt lat="50.41121" lon="4.88308">
        <ele>80.89</ele>
        <time>2016-07-06T08:49:12Z</time>
      </trkpt>
      <trkpt lat="50.41098" lon="4.88309">
        <ele>80.89</ele>
        <time>2016-07-06T08:49:33Z</time>
      </trkpt>
      <trkpt lat="50.41085" lon="4.88312">
        <ele>82.81</ele>
        <time>2016-07-06T08:49:44Z</time>
      </trkpt>
      <trkpt lat="50.41081" lon="4.88313">
        <ele>81.37</ele>
        <time>2016-07-06T08:49:46Z</time>
      </trkpt>
      <trkpt lat="50.41051" lon="4.88317">
        <ele>81.37</ele>
        <time>2016-07-06T08:50:10Z</time>
      </trkpt>
      <trkpt lat="50.41025" lon="4.88306">
        <ele>81.37</ele>
        <time>2016-07-06T08:50:36Z</time>
      </trkpt>
      <trkpt lat="50.40988" lon="4.88315">
        <ele>80.89</ele>
        <time>2016-07-06T08:51:03Z</time>
      </trkpt>
      <trkpt lat="50.40981" lon="4.88313">
        <ele>82.33</ele>
        <time>2016-07-06T08:51:09Z</time>
      </trkpt>
      <trkpt lat="50.40956" lon="4.8831">
        <ele>82.33</ele>
        <time>2016-07-06T08:51:32Z</time>
      </trkpt>
      <trkpt lat="50.40925" lon="4.88306">
        <ele>82.33</ele>
        <time>2016-07-06T08:52:00Z</time>
      </trkpt>
      <trkpt lat="50.4089" lon="4.88297">
        <ele>82.33</ele>
        <time>2016-07-06T08:52:30Z</time>
      </trkpt>
      <trkpt lat="50.40856" lon="4.88292">
        <ele>82.33</ele>
        <time>2016-07-06T08:52:56Z</time>
      </trkpt>
      <trkpt lat="50.40826" lon="4.88288">
        <ele>82.33</ele>
        <time>2016-07-06T08:53:22Z</time>
      </trkpt>
      <trkpt lat="50.40799" lon="4.88283">
        <ele>82.33</ele>
        <time>2016-07-06T08:53:48Z</time>
      </trkpt>
      <trkpt lat="50.40771" lon="4.88277">
        <ele>82.33</ele>
        <time>2016-07-06T08:54:11Z</time>
      </trkpt>
      <trkpt lat="50.40737" lon="4.88267">
        <ele>82.33</ele>
        <time>2016-07-06T08:54:39Z</time>
      </trkpt>
      <trkpt lat="50.40706" lon="4.8826">
        <ele>81.85</ele>
        <time>2016-07-06T08:55:08Z</time>
      </trkpt>
      <trkpt lat="50.40696" lon="4.88222">
        <ele>82.33</ele>
        <time>2016-07-06T08:55:30Z</time>
      </trkpt>
      <trkpt lat="50.40689" lon="4.88191">
        <ele>83.29</ele>
        <time>2016-07-06T08:55:51Z</time>
      </trkpt>
      <trkpt lat="50.40678" lon="4.88158">
        <ele>83.77</ele>
        <time>2016-07-06T08:56:15Z</time>
      </trkpt>
      <trkpt lat="50.40668" lon="4.88114">
        <ele>83.77</ele>
        <time>2016-07-06T08:56:38Z</time>
      </trkpt>
      <trkpt lat="50.40657" lon="4.88067">
        <ele>84.25</ele>
        <time>2016-07-06T08:57:04Z</time>
      </trkpt>
      <trkpt lat="50.40647" lon="4.88036">
        <ele>84.25</ele>
        <time>2016-07-06T08:57:24Z</time>
      </trkpt>
      <trkpt lat="50.40623" lon="4.88012">
        <ele>84.73</ele>
        <time>2016-07-06T08:57:48Z</time>
      </trkpt>
      <trkpt lat="50.40607" lon="4.88005">
        <ele>85.21</ele>
        <time>2016-07-06T08:58:09Z</time>
      </trkpt>
      <trkpt lat="50.40613" lon="4.87995">
        <ele>84.25</ele>
        <time>2016-07-06T08:58:19Z</time>
      </trkpt>
      <trkpt lat="50.40624" lon="4.87961">
        <ele>83.77</ele>
        <time>2016-07-06T08:58:44Z</time>
      </trkpt>
      <trkpt lat="50.40609" lon="4.87934">
        <ele>84.73</ele>
        <time>2016-07-06T08:59:08Z</time>
      </trkpt>
      <trkpt lat="50.40599" lon="4.87901">
        <ele>85.21</ele>
        <time>2016-07-06T08:59:34Z</time>
      </trkpt>
      <trkpt lat="50.40586" lon="4.87846">
        <ele>85.21</ele>
        <time>2016-07-06T09:00:00Z</time>
      </trkpt>
      <trkpt lat="50.40576" lon="4.8781">
        <ele>86.18</ele>
        <time>2016-07-06T09:00:26Z</time>
      </trkpt>
      <trkpt lat="50.40563" lon="4.87757">
        <ele>87.62</ele>
        <time>2016-07-06T09:00:53Z</time>
      </trkpt>
      <trkpt lat="50.40553" lon="4.87722">
        <ele>90.02</ele>
        <time>2016-07-06T09:01:19Z</time>
      </trkpt>
      <trkpt lat="50.40541" lon="4.87691">
        <ele>92.9</ele>
        <time>2016-07-06T09:01:40Z</time>
      </trkpt>
      <trkpt lat="50.40523" lon="4.8767">
        <ele>96.27</ele>
        <time>2016-07-06T09:01:56Z</time>
      </trkpt>
      <trkpt lat="50.40518" lon="4.8765">
        <ele>100.11</ele>
        <time>2016-07-06T09:02:19Z</time>
      </trkpt>
      <trkpt lat="50.40503" lon="4.87647">
        <ele>103</ele>
        <time>2016-07-06T09:02:36Z</time>
      </trkpt>
      <trkpt lat="50.40478" lon="4.87638">
        <ele>106.36</ele>
        <time>2016-07-06T09:02:53Z</time>
      </trkpt>
      <trkpt lat="50.40472" lon="4.87606">
        <ele>109.25</ele>
        <time>2016-07-06T09:03:14Z</time>
      </trkpt>
      <trkpt lat="50.40483" lon="4.87567">
        <ele>112.13</ele>
        <time>2016-07-06T09:03:36Z</time>
      </trkpt>
      <trkpt lat="50.40481" lon="4.87548">
        <ele>115.01</ele>
        <time>2016-07-06T09:03:56Z</time>
      </trkpt>
      <trkpt lat="50.4047" lon="4.87508">
        <ele>117.9</ele>
        <time>2016-07-06T09:04:17Z</time>
      </trkpt>
      <trkpt lat="50.4047" lon="4.87475">
        <ele>118.86</ele>
        <time>2016-07-06T09:04:37Z</time>
      </trkpt>
      <trkpt lat="50.40462" lon="4.87435">
        <ele>121.26</ele>
        <time>2016-07-06T09:05:00Z</time>
      </trkpt>
      <trkpt lat="50.40457" lon="4.87396">
        <ele>123.67</ele>
        <time>2016-07-06T09:05:24Z</time>
      </trkpt>
      <trkpt lat="50.40452" lon="4.87359">
        <ele>126.07</ele>
        <time>2016-07-06T09:05:45Z</time>
      </trkpt>
      <trkpt lat="50.40457" lon="4.87337">
        <ele>127.51</ele>
        <time>2016-07-06T09:06:08Z</time>
      </trkpt>
      <trkpt lat="50.40471" lon="4.87294">
        <ele>128.95</ele>
        <time>2016-07-06T09:06:31Z</time>
      </trkpt>
      <trkpt lat="50.40471" lon="4.8729">
        <ele>128.95</ele>
        <time>2016-07-06T09:06:33Z</time>
      </trkpt>
      <trkpt lat="50.40481" lon="4.87235">
        <ele>131.36</ele>
        <time>2016-07-06T09:07:02Z</time>
      </trkpt>
      <trkpt lat="50.40487" lon="4.87202">
        <ele>131.84</ele>
        <time>2016-07-06T09:07:25Z</time>
      </trkpt>
      <trkpt lat="50.40495" lon="4.87158">
        <ele>133.28</ele>
        <time>2016-07-06T09:07:50Z</time>
      </trkpt>
      <trkpt lat="50.40498" lon="4.8711">
        <ele>134.72</ele>
        <time>2016-07-06T09:08:16Z</time>
      </trkpt>
      <trkpt lat="50.40497" lon="4.87065">
        <ele>137.13</ele>
        <time>2016-07-06T09:08:40Z</time>
      </trkpt>
      <trkpt lat="50.40492" lon="4.87014">
        <ele>140.01</ele>
        <time>2016-07-06T09:09:08Z</time>
      </trkpt>
      <trkpt lat="50.40489" lon="4.86972">
        <ele>143.37</ele>
        <time>2016-07-06T09:09:35Z</time>
      </trkpt>
      <trkpt lat="50.40496" lon="4.86955">
        <ele>143.37</ele>
        <time>2016-07-06T09:09:49Z</time>
      </trkpt>
      <trkpt lat="50.4051" lon="4.86948">
        <ele>142.41</ele>
        <time>2016-07-06T09:10:09Z</time>
      </trkpt>
      <trkpt lat="50.40513" lon="4.86949">
        <ele>141.93</ele>
        <time>2016-07-06T09:10:37Z</time>
      </trkpt>
      <trkpt lat="50.40509" lon="4.86947">
        <ele>142.41</ele>
        <time>2016-07-06T09:11:07Z</time>
      </trkpt>
      <trkpt lat="50.40511" lon="4.8695">
        <ele>142.41</ele>
        <time>2016-07-06T09:11:43Z</time>
      </trkpt>
      <trkpt lat="50.40521" lon="4.86948">
        <ele>142.41</ele>
        <time>2016-07-06T09:12:12Z</time>
      </trkpt>
      <trkpt lat="50.40554" lon="4.8693">
        <ele>141.45</ele>
        <time>2016-07-06T09:12:39Z</time>
      </trkpt>
      <trkpt lat="50.40584" lon="4.86911">
        <ele>139.53</ele>
        <time>2016-07-06T09:13:07Z</time>
      </trkpt>
      <trkpt lat="50.40617" lon="4.86892">
        <ele>138.57</ele>
        <time>2016-07-06T09:13:35Z</time>
      </trkpt>
      <trkpt lat="50.40639" lon="4.86877">
        <ele>138.09</ele>
        <time>2016-07-06T09:13:58Z</time>
      </trkpt>
      <trkpt lat="50.40665" lon="4.86865">
        <ele>137.13</ele>
        <time>2016-07-06T09:14:20Z</time>
      </trkpt>
      <trkpt lat="50.40697" lon="4.86844">
        <ele>136.64</ele>
        <time>2016-07-06T09:14:47Z</time>
      </trkpt>
      <trkpt lat="50.40707" lon="4.86814">
        <ele>138.57</ele>
        <time>2016-07-06T09:15:10Z</time>
      </trkpt>
      <trkpt lat="50.40703" lon="4.86772">
        <ele>140.97</ele>
        <time>2016-07-06T09:15:34Z</time>
      </trkpt>
      <trkpt lat="50.40716" lon="4.86745">
        <ele>143.37</ele>
        <time>2016-07-06T09:15:58Z</time>
      </trkpt>
      <trkpt lat="50.40739" lon="4.86735">
        <ele>143.37</ele>
        <time>2016-07-06T09:16:23Z</time>
      </trkpt>
      <trkpt lat="50.40742" lon="4.86734">
        <ele>141.93</ele>
        <time>2016-07-06T09:16:26Z</time>
      </trkpt>
      <trkpt lat="50.40765" lon="4.86729">
        <ele>141.93</ele>
        <time>2016-07-06T09:16:52Z</time>
      </trkpt>
      <trkpt lat="50.40785" lon="4.86723">
        <ele>141.45</ele>
        <time>2016-07-06T09:17:16Z</time>
      </trkpt>
      <trkpt lat="50.40813" lon="4.86715">
        <ele>141.45</ele>
        <time>2016-07-06T09:17:44Z</time>
      </trkpt>
      <trkpt lat="50.40826" lon="4.86707">
        <ele>140.97</ele>
        <time>2016-07-06T09:18:06Z</time>
      </trkpt>
      <trkpt lat="50.40849" lon="4.86698">
        <ele>142.41</ele>
        <time>2016-07-06T09:18:25Z</time>
      </trkpt>
      <trkpt lat="50.40875" lon="4.86688">
        <ele>142.89</ele>
        <time>2016-07-06T09:18:51Z</time>
      </trkpt>
      <trkpt lat="50.40908" lon="4.86676">
        <ele>142.89</ele>
        <time>2016-07-06T09:19:19Z</time>
      </trkpt>
      <trkpt lat="50.40941" lon="4.86666">
        <ele>142.89</ele>
        <time>2016-07-06T09:19:47Z</time>
      </trkpt>
      <trkpt lat="50.40961" lon="4.86653">
        <ele>142.89</ele>
        <time>2016-07-06T09:20:08Z</time>
      </trkpt>
      <trkpt lat="50.40989" lon="4.86644">
        <ele>141.45</ele>
        <time>2016-07-06T09:20:30Z</time>
      </trkpt>
      <trkpt lat="50.41016" lon="4.86636">
        <ele>141.45</ele>
        <time>2016-07-06T09:20:55Z</time>
      </trkpt>
      <trkpt lat="50.41025" lon="4.86631">
        <ele>142.89</ele>
        <time>2016-07-06T09:21:02Z</time>
      </trkpt>
      <trkpt lat="50.41045" lon="4.86625">
        <ele>143.85</ele>
        <time>2016-07-06T09:21:23Z</time>
      </trkpt>
      <trkpt lat="50.41045" lon="4.8659">
        <ele>145.3</ele>
        <time>2016-07-06T09:21:44Z</time>
      </trkpt>
      <trkpt lat="50.4104" lon="4.86545">
        <ele>147.22</ele>
        <time>2016-07-06T09:22:10Z</time>
      </trkpt>
      <trkpt lat="50.41031" lon="4.86507">
        <ele>150.58</ele>
        <time>2016-07-06T09:22:33Z</time>
      </trkpt>
      <trkpt lat="50.41022" lon="4.8646">
        <ele>152.99</ele>
        <time>2016-07-06T09:22:59Z</time>
      </trkpt>
      <trkpt lat="50.41019" lon="4.86423">
        <ele>155.39</ele>
        <time>2016-07-06T09:23:25Z</time>
      </trkpt>
      <trkpt lat="50.41004" lon="4.8638">
        <ele>158.27</ele>
        <time>2016-07-06T09:23:51Z</time>
      </trkpt>
      <trkpt lat="50.41" lon="4.86343">
        <ele>160.68</ele>
        <time>2016-07-06T09:24:15Z</time>
      </trkpt>
      <trkpt lat="50.40988" lon="4.86304">
        <ele>163.08</ele>
        <time>2016-07-06T09:24:41Z</time>
      </trkpt>
      <trkpt lat="50.40984" lon="4.86262">
        <ele>165.48</ele>
        <time>2016-07-06T09:25:05Z</time>
      </trkpt>
      <trkpt lat="50.40967" lon="4.86234">
        <ele>169.33</ele>
        <time>2016-07-06T09:25:27Z</time>
      </trkpt>
      <trkpt lat="50.40949" lon="4.86223">
        <ele>171.73</ele>
        <time>2016-07-06T09:25:47Z</time>
      </trkpt>
      <trkpt lat="50.40944" lon="4.86203">
        <ele>175.1</ele>
        <time>2016-07-06T09:26:02Z</time>
      </trkpt>
      <trkpt lat="50.40945" lon="4.86171">
        <ele>178.94</ele>
        <time>2016-07-06T09:26:21Z</time>
      </trkpt>
      <trkpt lat="50.40954" lon="4.86139">
        <ele>182.31</ele>
        <time>2016-07-06T09:26:45Z</time>
      </trkpt>
      <trkpt lat="50.40969" lon="4.86114">
        <ele>185.67</ele>
        <time>2016-07-06T09:27:05Z</time>
      </trkpt>
      <trkpt lat="50.40966" lon="4.86087">
        <ele>189.04</ele>
        <time>2016-07-06T09:27:25Z</time>
      </trkpt>
      <trkpt lat="50.40963" lon="4.86057">
        <ele>191.44</ele>
        <time>2016-07-06T09:27:49Z</time>
      </trkpt>
      <trkpt lat="50.4096" lon="4.86026">
        <ele>194.8</ele>
        <time>2016-07-06T09:28:12Z</time>
      </trkpt>
      <trkpt lat="50.40956" lon="4.85999">
        <ele>197.21</ele>
        <time>2016-07-06T09:28:33Z</time>
      </trkpt>
      <trkpt lat="50.40953" lon="4.85962">
        <ele>200.57</ele>
        <time>2016-07-06T09:28:55Z</time>
      </trkpt>
      <trkpt lat="50.40959" lon="4.85926">
        <ele>202.49</ele>
        <time>2016-07-06T09:29:18Z</time>
      </trkpt>
      <trkpt lat="50.40959" lon="4.85882">
        <ele>203.94</ele>
        <time>2016-07-06T09:29:43Z</time>
      </trkpt>
      <trkpt lat="50.40946" lon="4.85862">
        <ele>205.86</ele>
        <time>2016-07-06T09:30:06Z</time>
      </trkpt>
      <trkpt lat="50.40943" lon="4.85861">
        <ele>205.38</ele>
        <time>2016-07-06T09:30:26Z</time>
      </trkpt>
      <trkpt lat="50.40947" lon="4.8586">
        <ele>204.9</ele>
        <time>2016-07-06T09:30:56Z</time>
      </trkpt>
      <trkpt lat="50.40947" lon="4.85859">
        <ele>206.34</ele>
        <time>2016-07-06T09:31:05Z</time>
      </trkpt>
      <trkpt lat="50.40944" lon="4.85859">
        <ele>206.34</ele>
        <time>2016-07-06T09:31:21Z</time>
      </trkpt>
      <trkpt lat="50.40947" lon="4.85861">
        <ele>204.9</ele>
        <time>2016-07-06T09:31:46Z</time>
      </trkpt>
      <trkpt lat="50.40945" lon="4.85859">
        <ele>205.38</ele>
        <time>2016-07-06T09:32:19Z</time>
      </trkpt>
      <trkpt lat="50.40947" lon="4.85861">
        <ele>205.38</ele>
        <time>2016-07-06T09:32:52Z</time>
      </trkpt>
      <trkpt lat="50.40945" lon="4.85861">
        <ele>205.86</ele>
        <time>2016-07-06T09:33:21Z</time>
      </trkpt>
      <trkpt lat="50.40946" lon="4.85861">
        <ele>205.86</ele>
        <time>2016-07-06T09:33:52Z</time>
      </trkpt>
      <trkpt lat="50.40949" lon="4.85862">
        <ele>206.34</ele>
        <time>2016-07-06T09:34:26Z</time>
      </trkpt>
      <trkpt lat="50.40949" lon="4.85866">
        <ele>206.34</ele>
        <time>2016-07-06T09:35:02Z</time>
      </trkpt>
      <trkpt lat="50.40955" lon="4.85864">
        <ele>205.86</ele>
        <time>2016-07-06T09:35:28Z</time>
      </trkpt>
      <trkpt lat="50.40969" lon="4.85862">
        <ele>203.94</ele>
        <time>2016-07-06T09:35:52Z</time>
      </trkpt>
      <trkpt lat="50.4099" lon="4.85865">
        <ele>200.57</ele>
        <time>2016-07-06T09:36:16Z</time>
      </trkpt>
      <trkpt lat="50.4099" lon="4.85867">
        <ele>199.61</ele>
        <time>2016-07-06T09:36:18Z</time>
      </trkpt>
      <trkpt lat="50.41014" lon="4.85883">
        <ele>196.25</ele>
        <time>2016-07-06T09:36:38Z</time>
      </trkpt>
      <trkpt lat="50.41025" lon="4.85878">
        <ele>192.4</ele>
        <time>2016-07-06T09:36:57Z</time>
      </trkpt>
      <trkpt lat="50.41058" lon="4.85896">
        <ele>190</ele>
        <time>2016-07-06T09:37:21Z</time>
      </trkpt>
      <trkpt lat="50.41074" lon="4.85912">
        <ele>187.11</ele>
        <time>2016-07-06T09:37:43Z</time>
      </trkpt>
      <trkpt lat="50.41074" lon="4.85896">
        <ele>189.04</ele>
        <time>2016-07-06T09:37:51Z</time>
      </trkpt>
      <trkpt lat="50.41049" lon="4.85864">
        <ele>190.48</ele>
        <time>2016-07-06T09:38:16Z</time>
      </trkpt>
      <trkpt lat="50.41032" lon="4.8584">
        <ele>192.88</ele>
        <time>2016-07-06T09:38:40Z</time>
      </trkpt>
      <trkpt lat="50.41054" lon="4.85825">
        <ele>195.28</ele>
        <time>2016-07-06T09:39:03Z</time>
      </trkpt>
      <trkpt lat="50.41074" lon="4.85802">
        <ele>199.13</ele>
        <time>2016-07-06T09:39:20Z</time>
      </trkpt>
      <trkpt lat="50.41087" lon="4.85779">
        <ele>202.01</ele>
        <time>2016-07-06T09:39:40Z</time>
      </trkpt>
      <trkpt lat="50.41102" lon="4.85771">
        <ele>205.38</ele>
        <time>2016-07-06T09:40:00Z</time>
      </trkpt>
      <trkpt lat="50.41112" lon="4.85744">
        <ele>207.78</ele>
        <time>2016-07-06T09:40:22Z</time>
      </trkpt>
      <trkpt lat="50.41128" lon="4.85717">
        <ele>211.15</ele>
        <time>2016-07-06T09:40:44Z</time>
      </trkpt>
      <trkpt lat="50.41131" lon="4.85713">
        <ele>211.15</ele>
        <time>2016-07-06T09:40:48Z</time>
      </trkpt>
      <trkpt lat="50.41151" lon="4.85699">
        <ele>213.07</ele>
        <time>2016-07-06T09:41:11Z</time>
      </trkpt>
      <trkpt lat="50.41174" lon="4.85683">
        <ele>214.99</ele>
        <time>2016-07-06T09:41:35Z</time>
      </trkpt>
      <trkpt lat="50.41197" lon="4.85713">
        <ele>214.03</ele>
        <time>2016-07-06T09:41:58Z</time>
      </trkpt>
      <trkpt lat="50.41204" lon="4.85762">
        <ele>212.11</ele>
        <time>2016-07-06T09:42:24Z</time>
      </trkpt>
      <trkpt lat="50.41212" lon="4.85802">
        <ele>210.67</ele>
        <time>2016-07-06T09:42:48Z</time>
      </trkpt>
      <trkpt lat="50.41229" lon="4.85834">
        <ele>208.26</ele>
        <time>2016-07-06T09:43:16Z</time>
      </trkpt>
      <trkpt lat="50.41241" lon="4.85857">
        <ele>205.38</ele>
        <time>2016-07-06T09:43:40Z</time>
      </trkpt>
      <trkpt lat="50.4125" lon="4.85885">
        <ele>202.49</ele>
        <time>2016-07-06T09:44:00Z</time>
      </trkpt>
      <trkpt lat="50.41269" lon="4.85911">
        <ele>199.61</ele>
        <time>2016-07-06T09:44:24Z</time>
      </trkpt>
      <trkpt lat="50.41293" lon="4.85937">
        <ele>196.25</ele>
        <time>2016-07-06T09:44:49Z</time>
      </trkpt>
      <trkpt lat="50.41315" lon="4.85949">
        <ele>193.36</ele>
        <time>2016-07-06T09:45:12Z</time>
      </trkpt>
      <trkpt lat="50.41333" lon="4.85954">
        <ele>190.48</ele>
        <time>2016-07-06T09:45:30Z</time>
      </trkpt>
      <trkpt lat="50.41354" lon="4.85958">
        <ele>187.11</ele>
        <time>2016-07-06T09:45:54Z</time>
      </trkpt>
      <trkpt lat="50.41363" lon="4.85956">
        <ele>185.67</ele>
        <time>2016-07-06T09:46:03Z</time>
      </trkpt>
      <trkpt lat="50.41383" lon="4.85962">
        <ele>182.31</ele>
        <time>2016-07-06T09:46:20Z</time>
      </trkpt>
      <trkpt lat="50.41396" lon="4.85969">
        <ele>178.94</ele>
        <time>2016-07-06T09:46:37Z</time>
      </trkpt>
      <trkpt lat="50.4141" lon="4.85979">
        <ele>175.58</ele>
        <time>2016-07-06T09:46:51Z</time>
      </trkpt>
      <trkpt lat="50.41422" lon="4.85996">
        <ele>172.69</ele>
        <time>2016-07-06T09:47:08Z</time>
      </trkpt>
      <trkpt lat="50.41434" lon="4.86014">
        <ele>169.81</ele>
        <time>2016-07-06T09:47:23Z</time>
      </trkpt>
      <trkpt lat="50.41456" lon="4.86033">
        <ele>167.89</ele>
        <time>2016-07-06T09:47:49Z</time>
      </trkpt>
      <trkpt lat="50.41464" lon="4.86033">
        <ele>166.45</ele>
        <time>2016-07-06T09:48:09Z</time>
      </trkpt>
      <trkpt lat="50.41473" lon="4.86034">
        <ele>165.48</ele>
        <time>2016-07-06T09:48:21Z</time>
      </trkpt>
      <trkpt lat="50.41512" lon="4.86036">
        <ele>163.08</ele>
        <time>2016-07-06T09:48:47Z</time>
      </trkpt>
      <trkpt lat="50.41537" lon="4.86041">
        <ele>161.16</ele>
        <time>2016-07-06T09:49:13Z</time>
      </trkpt>
      <trkpt lat="50.41561" lon="4.86033">
        <ele>159.24</ele>
        <time>2016-07-06T09:49:35Z</time>
      </trkpt>
      <trkpt lat="50.41583" lon="4.86023">
        <ele>155.87</ele>
        <time>2016-07-06T09:49:56Z</time>
      </trkpt>
      <trkpt lat="50.4161" lon="4.86011">
        <ele>153.47</ele>
        <time>2016-07-06T09:50:21Z</time>
      </trkpt>
      <trkpt lat="50.41636" lon="4.8602">
        <ele>150.1</ele>
        <time>2016-07-06T09:50:45Z</time>
      </trkpt>
      <trkpt lat="50.41658" lon="4.8606">
        <ele>149.14</ele>
        <time>2016-07-06T09:51:14Z</time>
      </trkpt>
      <trkpt lat="50.41679" lon="4.86102">
        <ele>147.22</ele>
        <time>2016-07-06T09:51:41Z</time>
      </trkpt>
      <trkpt lat="50.41699" lon="4.86137">
        <ele>145.78</ele>
        <time>2016-07-06T09:52:08Z</time>
      </trkpt>
      <trkpt lat="50.41714" lon="4.8617">
        <ele>145.78</ele>
        <time>2016-07-06T09:52:35Z</time>
      </trkpt>
      <trkpt lat="50.41725" lon="4.86222">
        <ele>144.34</ele>
        <time>2016-07-06T09:53:01Z</time>
      </trkpt>
      <trkpt lat="50.41737" lon="4.86265">
        <ele>142.89</ele>
        <time>2016-07-06T09:53:30Z</time>
      </trkpt>
      <trkpt lat="50.41753" lon="4.86271">
        <ele>141.93</ele>
        <time>2016-07-06T09:53:52Z</time>
      </trkpt>
      <trkpt lat="50.41781" lon="4.86263">
        <ele>139.53</ele>
        <time>2016-07-06T09:54:20Z</time>
      </trkpt>
      <trkpt lat="50.41792" lon="4.86239">
        <ele>138.57</ele>
        <time>2016-07-06T09:54:41Z</time>
      </trkpt>
      <trkpt lat="50.41797" lon="4.86208">
        <ele>137.13</ele>
        <time>2016-07-06T09:55:02Z</time>
      </trkpt>
      <trkpt lat="50.41811" lon="4.86155">
        <ele>135.2</ele>
        <time>2016-07-06T09:55:29Z</time>
      </trkpt>
      <trkpt lat="50.4181" lon="4.86108">
        <ele>134.24</ele>
        <time>2016-07-06T09:55:54Z</time>
      </trkpt>
      <trkpt lat="50.41794" lon="4.86071">
        <ele>133.76</ele>
        <time>2016-07-06T09:56:17Z</time>
      </trkpt>
      <trkpt lat="50.41794" lon="4.86057">
        <ele>132.8</ele>
        <time>2016-07-06T09:56:34Z</time>
      </trkpt>
      <trkpt lat="50.41804" lon="4.86041">
        <ele>134.24</ele>
        <time>2016-07-06T09:56:47Z</time>
      </trkpt>
      <trkpt lat="50.41824" lon="4.86014">
        <ele>134.72</ele>
        <time>2016-07-06T09:57:09Z</time>
      </trkpt>
      <trkpt lat="50.41844" lon="4.85993">
        <ele>134.72</ele>
        <time>2016-07-06T09:57:31Z</time>
      </trkpt>
      <trkpt lat="50.41869" lon="4.85973">
        <ele>134.72</ele>
        <time>2016-07-06T09:57:53Z</time>
      </trkpt>
      <trkpt lat="50.41903" lon="4.8597">
        <ele>135.2</ele>
        <time>2016-07-06T09:58:18Z</time>
      </trkpt>
      <trkpt lat="50.41929" lon="4.85969">
        <ele>135.2</ele>
        <time>2016-07-06T09:58:42Z</time>
      </trkpt>
      <trkpt lat="50.41947" lon="4.85947">
        <ele>135.68</ele>
        <time>2016-07-06T09:59:04Z</time>
      </trkpt>
      <trkpt lat="50.41975" lon="4.8591">
        <ele>135.2</ele>
        <time>2016-07-06T09:59:30Z</time>
      </trkpt>
      <trkpt lat="50.41986" lon="4.85894">
        <ele>136.64</ele>
        <time>2016-07-06T09:59:45Z</time>
      </trkpt>
      <trkpt lat="50.42007" lon="4.85864">
        <ele>137.13</ele>
        <time>2016-07-06T10:00:09Z</time>
      </trkpt>
      <trkpt lat="50.4203" lon="4.85834">
        <ele>138.09</ele>
        <time>2016-07-06T10:00:30Z</time>
      </trkpt>
      <trkpt lat="50.42055" lon="4.85827">
        <ele>138.09</ele>
        <time>2016-07-06T10:00:51Z</time>
      </trkpt>
      <trkpt lat="50.42084" lon="4.85859">
        <ele>138.09</ele>
        <time>2016-07-06T10:01:19Z</time>
      </trkpt>
      <trkpt lat="50.42107" lon="4.85898">
        <ele>138.09</ele>
        <time>2016-07-06T10:01:46Z</time>
      </trkpt>
      <trkpt lat="50.42126" lon="4.85925">
        <ele>138.57</ele>
        <time>2016-07-06T10:02:11Z</time>
      </trkpt>
      <trkpt lat="50.42134" lon="4.85894">
        <ele>140.01</ele>
        <time>2016-07-06T10:02:31Z</time>
      </trkpt>
      <trkpt lat="50.42137" lon="4.85839">
        <ele>140.01</ele>
        <time>2016-07-06T10:02:57Z</time>
      </trkpt>
      <trkpt lat="50.42145" lon="4.858">
        <ele>140.49</ele>
        <time>2016-07-06T10:03:20Z</time>
      </trkpt>
      <trkpt lat="50.42151" lon="4.85765">
        <ele>140.97</ele>
        <time>2016-07-06T10:03:42Z</time>
      </trkpt>
      <trkpt lat="50.42151" lon="4.85721">
        <ele>141.45</ele>
        <time>2016-07-06T10:04:04Z</time>
      </trkpt>
      <trkpt lat="50.42153" lon="4.85678">
        <ele>141.45</ele>
        <time>2016-07-06T10:04:28Z</time>
      </trkpt>
      <trkpt lat="50.42156" lon="4.85633">
        <ele>141.45</ele>
        <time>2016-07-06T10:04:53Z</time>
      </trkpt>
      <trkpt lat="50.42146" lon="4.85619">
        <ele>140.01</ele>
        <time>2016-07-06T10:05:06Z</time>
      </trkpt>
      <trkpt lat="50.42133" lon="4.85589">
        <ele>139.53</ele>
        <time>2016-07-06T10:05:27Z</time>
      </trkpt>
      <trkpt lat="50.42117" lon="4.85591">
        <ele>140.01</ele>
        <time>2016-07-06T10:05:45Z</time>
      </trkpt>
      <trkpt lat="50.42115" lon="4.85588">
        <ele>141.45</ele>
        <time>2016-07-06T10:05:51Z</time>
      </trkpt>
      <trkpt lat="50.42131" lon="4.85596">
        <ele>141.45</ele>
        <time>2016-07-06T10:15:19Z</time>
      </trkpt>
      <trkpt lat="50.42121" lon="4.8559">
        <ele>141.45</ele>
        <time>2016-07-06T10:15:23Z</time>
      </trkpt>
      <trkpt lat="50.42116" lon="4.85587">
        <ele>141.45</ele>
        <time>2016-07-06T10:15:30Z</time>
      </trkpt>
      <trkpt lat="50.42131" lon="4.85603">
        <ele>141.93</ele>
        <time>2016-07-06T10:50:13Z</time>
      </trkpt>
      <trkpt lat="50.42125" lon="4.85592">
        <ele>140.01</ele>
        <time>2016-07-06T10:50:36Z</time>
      </trkpt>
      <trkpt lat="50.4214" lon="4.85592">
        <ele>139.53</ele>
        <time>2016-07-06T10:50:54Z</time>
      </trkpt>
      <trkpt lat="50.42154" lon="4.85614">
        <ele>140.97</ele>
        <time>2016-07-06T10:51:15Z</time>
      </trkpt>
      <trkpt lat="50.42162" lon="4.85596">
        <ele>139.53</ele>
        <time>2016-07-06T10:51:29Z</time>
      </trkpt>
      <trkpt lat="50.42164" lon="4.85554">
        <ele>139.05</ele>
        <time>2016-07-06T10:51:52Z</time>
      </trkpt>
      <trkpt lat="50.42165" lon="4.85515">
        <ele>140.01</ele>
        <time>2016-07-06T10:52:14Z</time>
      </trkpt>
      <trkpt lat="50.42168" lon="4.85465">
        <ele>140.01</ele>
        <time>2016-07-06T10:52:39Z</time>
      </trkpt>
      <trkpt lat="50.42172" lon="4.85421">
        <ele>140.01</ele>
        <time>2016-07-06T10:53:02Z</time>
      </trkpt>
      <trkpt lat="50.42172" lon="4.85388">
        <ele>138.57</ele>
        <time>2016-07-06T10:53:20Z</time>
      </trkpt>
      <trkpt lat="50.4218" lon="4.85346">
        <ele>138.09</ele>
        <time>2016-07-06T10:53:45Z</time>
      </trkpt>
      <trkpt lat="50.42187" lon="4.85296">
        <ele>138.09</ele>
        <time>2016-07-06T10:54:10Z</time>
      </trkpt>
      <trkpt lat="50.42195" lon="4.85246">
        <ele>136.64</ele>
        <time>2016-07-06T10:54:34Z</time>
      </trkpt>
      <trkpt lat="50.42213" lon="4.85209">
        <ele>134.24</ele>
        <time>2016-07-06T10:55:00Z</time>
      </trkpt>
      <trkpt lat="50.42228" lon="4.8517">
        <ele>131.84</ele>
        <time>2016-07-06T10:55:25Z</time>
      </trkpt>
      <trkpt lat="50.42218" lon="4.85148">
        <ele>130.88</ele>
        <time>2016-07-06T10:55:47Z</time>
      </trkpt>
      <trkpt lat="50.42224" lon="4.85099">
        <ele>128.95</ele>
        <time>2016-07-06T10:56:12Z</time>
      </trkpt>
      <trkpt lat="50.42218" lon="4.85052">
        <ele>127.51</ele>
        <time>2016-07-06T10:56:37Z</time>
      </trkpt>
      <trkpt lat="50.42216" lon="4.85014">
        <ele>128.47</ele>
        <time>2016-07-06T10:56:58Z</time>
      </trkpt>
      <trkpt lat="50.42216" lon="4.84969">
        <ele>130.4</ele>
        <time>2016-07-06T10:57:20Z</time>
      </trkpt>
      <trkpt lat="50.42215" lon="4.84927">
        <ele>132.8</ele>
        <time>2016-07-06T10:57:43Z</time>
      </trkpt>
      <trkpt lat="50.42218" lon="4.84878">
        <ele>135.2</ele>
        <time>2016-07-06T10:58:07Z</time>
      </trkpt>
      <trkpt lat="50.42214" lon="4.84843">
        <ele>138.09</ele>
        <time>2016-07-06T10:58:30Z</time>
      </trkpt>
      <trkpt lat="50.4222" lon="4.84805">
        <ele>139.53</ele>
        <time>2016-07-06T10:58:52Z</time>
      </trkpt>
      <trkpt lat="50.42219" lon="4.84754">
        <ele>140.01</ele>
        <time>2016-07-06T10:59:16Z</time>
      </trkpt>
      <trkpt lat="50.42223" lon="4.847">
        <ele>140.97</ele>
        <time>2016-07-06T10:59:42Z</time>
      </trkpt>
      <trkpt lat="50.42225" lon="4.84669">
        <ele>140.97</ele>
        <time>2016-07-06T11:00:04Z</time>
      </trkpt>
      <trkpt lat="50.42223" lon="4.84617">
        <ele>141.45</ele>
        <time>2016-07-06T11:00:26Z</time>
      </trkpt>
      <trkpt lat="50.42223" lon="4.84569">
        <ele>141.93</ele>
        <time>2016-07-06T11:00:52Z</time>
      </trkpt>
      <trkpt lat="50.42222" lon="4.84511">
        <ele>141.93</ele>
        <time>2016-07-06T11:01:20Z</time>
      </trkpt>
      <trkpt lat="50.42219" lon="4.84453">
        <ele>141.93</ele>
        <time>2016-07-06T11:01:49Z</time>
      </trkpt>
      <trkpt lat="50.42217" lon="4.84397">
        <ele>141.93</ele>
        <time>2016-07-06T11:02:17Z</time>
      </trkpt>
      <trkpt lat="50.4222" lon="4.84353">
        <ele>141.93</ele>
        <time>2016-07-06T11:02:40Z</time>
      </trkpt>
      <trkpt lat="50.42222" lon="4.84306">
        <ele>142.41</ele>
        <time>2016-07-06T11:03:05Z</time>
      </trkpt>
      <trkpt lat="50.42222" lon="4.84254">
        <ele>142.89</ele>
        <time>2016-07-06T11:03:35Z</time>
      </trkpt>
      <trkpt lat="50.4222" lon="4.84212">
        <ele>142.89</ele>
        <time>2016-07-06T11:04:01Z</time>
      </trkpt>
      <trkpt lat="50.42223" lon="4.84206">
        <ele>142.89</ele>
        <time>2016-07-06T11:04:06Z</time>
      </trkpt>
      <trkpt lat="50.42248" lon="4.84178">
        <ele>140.49</ele>
        <time>2016-07-06T11:04:30Z</time>
      </trkpt>
      <trkpt lat="50.42259" lon="4.84143">
        <ele>138.57</ele>
        <time>2016-07-06T11:04:52Z</time>
      </trkpt>
      <trkpt lat="50.42258" lon="4.84092">
        <ele>137.13</ele>
        <time>2016-07-06T11:05:15Z</time>
      </trkpt>
      <trkpt lat="50.42267" lon="4.84062">
        <ele>137.13</ele>
        <time>2016-07-06T11:05:39Z</time>
      </trkpt>
      <trkpt lat="50.42278" lon="4.84046">
        <ele>139.53</ele>
        <time>2016-07-06T11:06:00Z</time>
      </trkpt>
      <trkpt lat="50.42295" lon="4.84014">
        <ele>142.89</ele>
        <time>2016-07-06T11:06:24Z</time>
      </trkpt>
      <trkpt lat="50.423" lon="4.84003">
        <ele>142.41</ele>
        <time>2016-07-06T11:06:31Z</time>
      </trkpt>
      <trkpt lat="50.42305" lon="4.83976">
        <ele>143.37</ele>
        <time>2016-07-06T11:06:47Z</time>
      </trkpt>
      <trkpt lat="50.42308" lon="4.83939">
        <ele>144.34</ele>
        <time>2016-07-06T11:07:07Z</time>
      </trkpt>
      <trkpt lat="50.42309" lon="4.83932">
        <ele>145.3</ele>
        <time>2016-07-06T11:07:10Z</time>
      </trkpt>
      <trkpt lat="50.42322" lon="4.83858">
        <ele>146.26</ele>
        <time>2016-07-06T11:07:34Z</time>
      </trkpt>
      <trkpt lat="50.42333" lon="4.8381">
        <ele>146.74</ele>
        <time>2016-07-06T11:08:02Z</time>
      </trkpt>
      <trkpt lat="50.42336" lon="4.83773">
        <ele>146.74</ele>
        <time>2016-07-06T11:08:17Z</time>
      </trkpt>
      <trkpt lat="50.42352" lon="4.83741">
        <ele>147.22</ele>
        <time>2016-07-06T11:08:42Z</time>
      </trkpt>
      <trkpt lat="50.42367" lon="4.83699">
        <ele>147.22</ele>
        <time>2016-07-06T11:09:05Z</time>
      </trkpt>
      <trkpt lat="50.42377" lon="4.83662">
        <ele>147.7</ele>
        <time>2016-07-06T11:09:28Z</time>
      </trkpt>
      <trkpt lat="50.42383" lon="4.83627">
        <ele>147.22</ele>
        <time>2016-07-06T11:09:53Z</time>
      </trkpt>
      <trkpt lat="50.42389" lon="4.83593">
        <ele>145.78</ele>
        <time>2016-07-06T11:10:16Z</time>
      </trkpt>
      <trkpt lat="50.4239" lon="4.83566">
        <ele>145.3</ele>
        <time>2016-07-06T11:10:36Z</time>
      </trkpt>
      <trkpt lat="50.42398" lon="4.83533">
        <ele>145.78</ele>
        <time>2016-07-06T11:11:00Z</time>
      </trkpt>
      <trkpt lat="50.42403" lon="4.83479">
        <ele>147.7</ele>
        <time>2016-07-06T11:11:27Z</time>
      </trkpt>
      <trkpt lat="50.42408" lon="4.83439">
        <ele>151.06</ele>
        <time>2016-07-06T11:11:50Z</time>
      </trkpt>
      <trkpt lat="50.4241" lon="4.83375">
        <ele>153.47</ele>
        <time>2016-07-06T11:12:15Z</time>
      </trkpt>
      <trkpt lat="50.42408" lon="4.83325">
        <ele>156.35</ele>
        <time>2016-07-06T11:12:38Z</time>
      </trkpt>
      <trkpt lat="50.42414" lon="4.83282">
        <ele>158.75</ele>
        <time>2016-07-06T11:13:01Z</time>
      </trkpt>
      <trkpt lat="50.4242" lon="4.83244">
        <ele>161.16</ele>
        <time>2016-07-06T11:13:22Z</time>
      </trkpt>
      <trkpt lat="50.42421" lon="4.83213">
        <ele>164.52</ele>
        <time>2016-07-06T11:13:42Z</time>
      </trkpt>
      <trkpt lat="50.42427" lon="4.83166">
        <ele>166.93</ele>
        <time>2016-07-06T11:14:08Z</time>
      </trkpt>
      <trkpt lat="50.42428" lon="4.83126">
        <ele>169.81</ele>
        <time>2016-07-06T11:14:29Z</time>
      </trkpt>
      <trkpt lat="50.42433" lon="4.83088">
        <ele>171.73</ele>
        <time>2016-07-06T11:14:50Z</time>
      </trkpt>
      <trkpt lat="50.42438" lon="4.83039">
        <ele>173.66</ele>
        <time>2016-07-06T11:15:14Z</time>
      </trkpt>
      <trkpt lat="50.42444" lon="4.83004">
        <ele>175.1</ele>
        <time>2016-07-06T11:15:34Z</time>
      </trkpt>
      <trkpt lat="50.4245" lon="4.8296">
        <ele>177.02</ele>
        <time>2016-07-06T11:15:58Z</time>
      </trkpt>
      <trkpt lat="50.42443" lon="4.82936">
        <ele>178.46</ele>
        <time>2016-07-06T11:16:17Z</time>
      </trkpt>
      <trkpt lat="50.42411" lon="4.82906">
        <ele>178.46</ele>
        <time>2016-07-06T11:16:46Z</time>
      </trkpt>
      <trkpt lat="50.42402" lon="4.829">
        <ele>178.46</ele>
        <time>2016-07-06T11:16:53Z</time>
      </trkpt>
      <trkpt lat="50.42383" lon="4.82874">
        <ele>180.87</ele>
        <time>2016-07-06T11:17:15Z</time>
      </trkpt>
      <trkpt lat="50.42376" lon="4.82868">
        <ele>180.87</ele>
        <time>2016-07-06T11:17:23Z</time>
      </trkpt>
      <trkpt lat="50.4235" lon="4.82847">
        <ele>181.83</ele>
        <time>2016-07-06T11:17:48Z</time>
      </trkpt>
      <trkpt lat="50.42323" lon="4.82822">
        <ele>181.83</ele>
        <time>2016-07-06T11:18:15Z</time>
      </trkpt>
      <trkpt lat="50.42297" lon="4.82795">
        <ele>182.79</ele>
        <time>2016-07-06T11:18:40Z</time>
      </trkpt>
      <trkpt lat="50.42268" lon="4.82765">
        <ele>184.23</ele>
        <time>2016-07-06T11:19:09Z</time>
      </trkpt>
      <trkpt lat="50.42241" lon="4.82735">
        <ele>186.15</ele>
        <time>2016-07-06T11:19:37Z</time>
      </trkpt>
      <trkpt lat="50.42219" lon="4.82717">
        <ele>189.04</ele>
        <time>2016-07-06T11:19:56Z</time>
      </trkpt>
      <trkpt lat="50.42193" lon="4.82691">
        <ele>191.44</ele>
        <time>2016-07-06T11:20:23Z</time>
      </trkpt>
      <trkpt lat="50.42168" lon="4.8266">
        <ele>194.8</ele>
        <time>2016-07-06T11:20:52Z</time>
      </trkpt>
      <trkpt lat="50.42142" lon="4.82636">
        <ele>197.21</ele>
        <time>2016-07-06T11:21:19Z</time>
      </trkpt>
      <trkpt lat="50.42136" lon="4.82635">
        <ele>198.65</ele>
        <time>2016-07-06T11:21:39Z</time>
      </trkpt>
      <trkpt lat="50.42111" lon="4.82608">
        <ele>201.53</ele>
        <time>2016-07-06T11:22:05Z</time>
      </trkpt>
      <trkpt lat="50.4209" lon="4.82591">
        <ele>203.94</ele>
        <time>2016-07-06T11:22:25Z</time>
      </trkpt>
      <trkpt lat="50.42071" lon="4.82573">
        <ele>202.98</ele>
        <time>2016-07-06T11:22:45Z</time>
      </trkpt>
      <trkpt lat="50.42056" lon="4.82562">
        <ele>204.42</ele>
        <time>2016-07-06T11:22:58Z</time>
      </trkpt>
      <trkpt lat="50.42032" lon="4.82536">
        <ele>203.46</ele>
        <time>2016-07-06T11:23:25Z</time>
      </trkpt>
      <trkpt lat="50.42005" lon="4.82514">
        <ele>204.42</ele>
        <time>2016-07-06T11:23:49Z</time>
      </trkpt>
      <trkpt lat="50.41986" lon="4.82493">
        <ele>204.9</ele>
        <time>2016-07-06T11:24:11Z</time>
      </trkpt>
      <trkpt lat="50.41961" lon="4.82466">
        <ele>206.34</ele>
        <time>2016-07-06T11:24:37Z</time>
      </trkpt>
      <trkpt lat="50.41929" lon="4.8243">
        <ele>207.78</ele>
        <time>2016-07-06T11:25:07Z</time>
      </trkpt>
      <trkpt lat="50.41897" lon="4.82398">
        <ele>208.74</ele>
        <time>2016-07-06T11:25:35Z</time>
      </trkpt>
      <trkpt lat="50.41866" lon="4.82367">
        <ele>210.19</ele>
        <time>2016-07-06T11:26:04Z</time>
      </trkpt>
      <trkpt lat="50.41836" lon="4.82334">
        <ele>212.11</ele>
        <time>2016-07-06T11:26:34Z</time>
      </trkpt>
      <trkpt lat="50.4181" lon="4.82309">
        <ele>212.59</ele>
        <time>2016-07-06T11:27:00Z</time>
      </trkpt>
      <trkpt lat="50.41783" lon="4.82279">
        <ele>213.55</ele>
        <time>2016-07-06T11:27:27Z</time>
      </trkpt>
      <trkpt lat="50.41756" lon="4.82253">
        <ele>214.03</ele>
        <time>2016-07-06T11:27:53Z</time>
      </trkpt>
      <trkpt lat="50.4173" lon="4.82228">
        <ele>214.99</ele>
        <time>2016-07-06T11:28:18Z</time>
      </trkpt>
      <trkpt lat="50.4172" lon="4.82221">
        <ele>216.43</ele>
        <time>2016-07-06T11:28:27Z</time>
      </trkpt>
      <trkpt lat="50.4169" lon="4.82236">
        <ele>218.36</ele>
        <time>2016-07-06T11:28:53Z</time>
      </trkpt>
      <trkpt lat="50.41676" lon="4.8225">
        <ele>219.32</ele>
        <time>2016-07-06T11:29:07Z</time>
      </trkpt>
      <trkpt lat="50.41648" lon="4.8228">
        <ele>221.24</ele>
        <time>2016-07-06T11:29:34Z</time>
      </trkpt>
      <trkpt lat="50.41622" lon="4.82308">
        <ele>222.68</ele>
        <time>2016-07-06T11:30:01Z</time>
      </trkpt>
      <trkpt lat="50.41598" lon="4.82332">
        <ele>223.64</ele>
        <time>2016-07-06T11:30:24Z</time>
      </trkpt>
      <trkpt lat="50.41574" lon="4.82358">
        <ele>225.57</ele>
        <time>2016-07-06T11:30:48Z</time>
      </trkpt>
      <trkpt lat="50.41552" lon="4.8238">
        <ele>226.53</ele>
        <time>2016-07-06T11:31:11Z</time>
      </trkpt>
      <trkpt lat="50.4153" lon="4.82402">
        <ele>228.45</ele>
        <time>2016-07-06T11:31:32Z</time>
      </trkpt>
      <trkpt lat="50.41507" lon="4.82425">
        <ele>229.41</ele>
        <time>2016-07-06T11:31:55Z</time>
      </trkpt>
      <trkpt lat="50.41482" lon="4.8245">
        <ele>230.85</ele>
        <time>2016-07-06T11:32:20Z</time>
      </trkpt>
      <trkpt lat="50.41456" lon="4.82477">
        <ele>231.33</ele>
        <time>2016-07-06T11:32:46Z</time>
      </trkpt>
      <trkpt lat="50.4143" lon="4.82501">
        <ele>232.3</ele>
        <time>2016-07-06T11:33:10Z</time>
      </trkpt>
      <trkpt lat="50.4141" lon="4.82523">
        <ele>233.26</ele>
        <time>2016-07-06T11:33:31Z</time>
      </trkpt>
      <trkpt lat="50.41394" lon="4.82542">
        <ele>233.26</ele>
        <time>2016-07-06T11:33:48Z</time>
      </trkpt>
      <trkpt lat="50.41368" lon="4.8256">
        <ele>234.22</ele>
        <time>2016-07-06T11:34:12Z</time>
      </trkpt>
      <trkpt lat="50.41352" lon="4.82589">
        <ele>234.7</ele>
        <time>2016-07-06T11:34:33Z</time>
      </trkpt>
      <trkpt lat="50.4135" lon="4.82596">
        <ele>233.26</ele>
        <time>2016-07-06T11:34:38Z</time>
      </trkpt>
      <trkpt lat="50.41344" lon="4.82641">
        <ele>233.26</ele>
        <time>2016-07-06T11:35:00Z</time>
      </trkpt>
      <trkpt lat="50.41341" lon="4.82682">
        <ele>233.26</ele>
        <time>2016-07-06T11:35:21Z</time>
      </trkpt>
      <trkpt lat="50.41337" lon="4.82731">
        <ele>233.26</ele>
        <time>2016-07-06T11:35:47Z</time>
      </trkpt>
      <trkpt lat="50.41334" lon="4.82783">
        <ele>233.74</ele>
        <time>2016-07-06T11:36:14Z</time>
      </trkpt>
      <trkpt lat="50.41331" lon="4.82833">
        <ele>233.26</ele>
        <time>2016-07-06T11:36:40Z</time>
      </trkpt>
      <trkpt lat="50.41322" lon="4.82874">
        <ele>233.26</ele>
        <time>2016-07-06T11:37:06Z</time>
      </trkpt>
      <trkpt lat="50.41313" lon="4.82915">
        <ele>233.26</ele>
        <time>2016-07-06T11:37:30Z</time>
      </trkpt>
      <trkpt lat="50.41316" lon="4.82961">
        <ele>233.26</ele>
        <time>2016-07-06T11:37:53Z</time>
      </trkpt>
      <trkpt lat="50.41311" lon="4.83003">
        <ele>235.66</ele>
        <time>2016-07-06T11:38:19Z</time>
      </trkpt>
      <trkpt lat="50.41299" lon="4.83038">
        <ele>233.74</ele>
        <time>2016-07-06T11:38:43Z</time>
      </trkpt>
      <trkpt lat="50.41292" lon="4.83086">
        <ele>233.74</ele>
        <time>2016-07-06T11:39:04Z</time>
      </trkpt>
      <trkpt lat="50.41269" lon="4.83115">
        <ele>233.74</ele>
        <time>2016-07-06T11:39:28Z</time>
      </trkpt>
      <trkpt lat="50.41242" lon="4.83139">
        <ele>233.74</ele>
        <time>2016-07-06T11:39:51Z</time>
      </trkpt>
      <trkpt lat="50.41225" lon="4.83175">
        <ele>235.18</ele>
        <time>2016-07-06T11:40:14Z</time>
      </trkpt>
      <trkpt lat="50.41218" lon="4.83202">
        <ele>235.66</ele>
        <time>2016-07-06T11:40:36Z</time>
      </trkpt>
      <trkpt lat="50.41211" lon="4.83226">
        <ele>235.66</ele>
        <time>2016-07-06T11:41:02Z</time>
      </trkpt>
      <trkpt lat="50.41214" lon="4.83224">
        <ele>236.14</ele>
        <time>2016-07-06T11:41:37Z</time>
      </trkpt>
      <trkpt lat="50.41206" lon="4.83204">
        <ele>236.62</ele>
        <time>2016-07-06T11:42:04Z</time>
      </trkpt>
      <trkpt lat="50.41192" lon="4.83192">
        <ele>235.66</ele>
        <time>2016-07-06T11:42:24Z</time>
      </trkpt>
      <trkpt lat="50.41172" lon="4.83178">
        <ele>233.26</ele>
        <time>2016-07-06T11:42:48Z</time>
      </trkpt>
      <trkpt lat="50.4117" lon="4.83173">
        <ele>232.78</ele>
        <time>2016-07-06T11:43:05Z</time>
      </trkpt>
      <trkpt lat="50.41165" lon="4.8317">
        <ele>232.78</ele>
        <time>2016-07-06T11:43:46Z</time>
      </trkpt>
      <trkpt lat="50.41174" lon="4.83189">
        <ele>232.78</ele>
        <time>2016-07-06T11:44:06Z</time>
      </trkpt>
      <trkpt lat="50.41175" lon="4.83219">
        <ele>232.78</ele>
        <time>2016-07-06T11:44:30Z</time>
      </trkpt>
      <trkpt lat="50.41133" lon="4.83161">
        <ele>231.81</ele>
        <time>2016-07-06T11:48:15Z</time>
      </trkpt>
      <trkpt lat="50.41174" lon="4.83163">
        <ele>231.81</ele>
        <time>2016-07-06T11:48:35Z</time>
      </trkpt>
      <trkpt lat="50.41177" lon="4.83181">
        <ele>232.78</ele>
        <time>2016-07-06T11:49:03Z</time>
      </trkpt>
      <trkpt lat="50.41195" lon="4.83185">
        <ele>235.66</ele>
        <time>2016-07-06T11:49:22Z</time>
      </trkpt>
      <trkpt lat="50.41201" lon="4.83201">
        <ele>237.58</ele>
        <time>2016-07-06T11:49:45Z</time>
      </trkpt>
      <trkpt lat="50.41215" lon="4.83202">
        <ele>237.58</ele>
        <time>2016-07-06T11:50:10Z</time>
      </trkpt>
      <trkpt lat="50.41205" lon="4.83247">
        <ele>236.62</ele>
        <time>2016-07-06T11:50:34Z</time>
      </trkpt>
      <trkpt lat="50.41197" lon="4.83289">
        <ele>236.62</ele>
        <time>2016-07-06T11:51:00Z</time>
      </trkpt>
      <trkpt lat="50.41198" lon="4.83329">
        <ele>236.62</ele>
        <time>2016-07-06T11:51:26Z</time>
      </trkpt>
      <trkpt lat="50.412" lon="4.83371">
        <ele>236.14</ele>
        <time>2016-07-06T11:51:49Z</time>
      </trkpt>
      <trkpt lat="50.41195" lon="4.83404">
        <ele>236.62</ele>
        <time>2016-07-06T11:52:11Z</time>
      </trkpt>
      <trkpt lat="50.41193" lon="4.83427">
        <ele>235.66</ele>
        <time>2016-07-06T11:52:33Z</time>
      </trkpt>
      <trkpt lat="50.41183" lon="4.83458">
        <ele>235.66</ele>
        <time>2016-07-06T11:52:52Z</time>
      </trkpt>
      <trkpt lat="50.41173" lon="4.83488">
        <ele>235.18</ele>
        <time>2016-07-06T11:53:10Z</time>
      </trkpt>
      <trkpt lat="50.41166" lon="4.83502">
        <ele>235.18</ele>
        <time>2016-07-06T11:53:33Z</time>
      </trkpt>
      <trkpt lat="50.41157" lon="4.83524">
        <ele>234.22</ele>
        <time>2016-07-06T11:53:55Z</time>
      </trkpt>
      <trkpt lat="50.41136" lon="4.83565">
        <ele>233.26</ele>
        <time>2016-07-06T11:54:21Z</time>
      </trkpt>
      <trkpt lat="50.41114" lon="4.83594">
        <ele>233.74</ele>
        <time>2016-07-06T11:54:44Z</time>
      </trkpt>
      <trkpt lat="50.41094" lon="4.83612">
        <ele>233.26</ele>
        <time>2016-07-06T11:55:06Z</time>
      </trkpt>
      <trkpt lat="50.41067" lon="4.83627">
        <ele>232.78</ele>
        <time>2016-07-06T11:55:30Z</time>
      </trkpt>
      <trkpt lat="50.41049" lon="4.83636">
        <ele>232.3</ele>
        <time>2016-07-06T11:55:51Z</time>
      </trkpt>
      <trkpt lat="50.4104" lon="4.83642">
        <ele>233.74</ele>
        <time>2016-07-06T11:56:02Z</time>
      </trkpt>
      <trkpt lat="50.41031" lon="4.83655">
        <ele>232.3</ele>
        <time>2016-07-06T11:56:15Z</time>
      </trkpt>
      <trkpt lat="50.41013" lon="4.83658">
        <ele>233.74</ele>
        <time>2016-07-06T11:56:35Z</time>
      </trkpt>
      <trkpt lat="50.40988" lon="4.8367">
        <ele>233.74</ele>
        <time>2016-07-06T11:56:58Z</time>
      </trkpt>
      <trkpt lat="50.40969" lon="4.83679">
        <ele>232.3</ele>
        <time>2016-07-06T11:57:15Z</time>
      </trkpt>
      <trkpt lat="50.40948" lon="4.8369">
        <ele>232.3</ele>
        <time>2016-07-06T11:57:34Z</time>
      </trkpt>
      <trkpt lat="50.40921" lon="4.83699">
        <ele>231.81</ele>
        <time>2016-07-06T11:57:57Z</time>
      </trkpt>
      <trkpt lat="50.409" lon="4.83718">
        <ele>231.81</ele>
        <time>2016-07-06T11:58:17Z</time>
      </trkpt>
      <trkpt lat="50.40877" lon="4.83739">
        <ele>231.81</ele>
        <time>2016-07-06T11:58:41Z</time>
      </trkpt>
      <trkpt lat="50.40862" lon="4.83739">
        <ele>230.85</ele>
        <time>2016-07-06T11:58:51Z</time>
      </trkpt>
      <trkpt lat="50.40847" lon="4.83747">
        <ele>226.53</ele>
        <time>2016-07-06T11:59:06Z</time>
      </trkpt>
      <trkpt lat="50.40845" lon="4.83747">
        <ele>236.62</ele>
        <time>2016-07-06T11:59:07Z</time>
      </trkpt>
      <trkpt lat="50.40844" lon="4.83747">
        <ele>230.85</ele>
        <time>2016-07-06T11:59:08Z</time>
      </trkpt>
      <trkpt lat="50.40824" lon="4.83762">
        <ele>230.85</ele>
        <time>2016-07-06T11:59:29Z</time>
      </trkpt>
      <trkpt lat="50.40821" lon="4.83793">
        <ele>230.85</ele>
        <time>2016-07-06T11:59:50Z</time>
      </trkpt>
      <trkpt lat="50.40823" lon="4.83823">
        <ele>228.93</ele>
        <time>2016-07-06T12:00:10Z</time>
      </trkpt>
      <trkpt lat="50.40838" lon="4.83857">
        <ele>227.97</ele>
        <time>2016-07-06T12:00:35Z</time>
      </trkpt>
      <trkpt lat="50.4086" lon="4.83873">
        <ele>227.01</ele>
        <time>2016-07-06T12:00:58Z</time>
      </trkpt>
      <trkpt lat="50.40886" lon="4.83894">
        <ele>225.57</ele>
        <time>2016-07-06T12:01:23Z</time>
      </trkpt>
      <trkpt lat="50.40911" lon="4.83913">
        <ele>224.61</ele>
        <time>2016-07-06T12:01:48Z</time>
      </trkpt>
      <trkpt lat="50.40934" lon="4.83929">
        <ele>223.16</ele>
        <time>2016-07-06T12:02:10Z</time>
      </trkpt>
      <trkpt lat="50.40957" lon="4.83958">
        <ele>222.68</ele>
        <time>2016-07-06T12:02:36Z</time>
      </trkpt>
      <trkpt lat="50.40976" lon="4.83988">
        <ele>221.72</ele>
        <time>2016-07-06T12:03:01Z</time>
      </trkpt>
      <trkpt lat="50.40992" lon="4.8402">
        <ele>220.28</ele>
        <time>2016-07-06T12:03:21Z</time>
      </trkpt>
      <trkpt lat="50.41011" lon="4.84063">
        <ele>219.8</ele>
        <time>2016-07-06T12:03:49Z</time>
      </trkpt>
      <trkpt lat="50.41027" lon="4.84101">
        <ele>218.84</ele>
        <time>2016-07-06T12:04:12Z</time>
      </trkpt>
      <trkpt lat="50.41049" lon="4.84144">
        <ele>217.88</ele>
        <time>2016-07-06T12:04:41Z</time>
      </trkpt>
      <trkpt lat="50.41055" lon="4.8416">
        <ele>217.88</ele>
        <time>2016-07-06T12:04:51Z</time>
      </trkpt>
      <trkpt lat="50.41074" lon="4.84201">
        <ele>217.88</ele>
        <time>2016-07-06T12:05:16Z</time>
      </trkpt>
      <trkpt lat="50.41096" lon="4.84254">
        <ele>217.4</ele>
        <time>2016-07-06T12:05:48Z</time>
      </trkpt>
      <trkpt lat="50.41123" lon="4.84302">
        <ele>217.88</ele>
        <time>2016-07-06T12:06:21Z</time>
      </trkpt>
      <trkpt lat="50.41152" lon="4.84338">
        <ele>219.32</ele>
        <time>2016-07-06T12:06:52Z</time>
      </trkpt>
      <trkpt lat="50.41169" lon="4.8437">
        <ele>219.32</ele>
        <time>2016-07-06T12:07:16Z</time>
      </trkpt>
      <trkpt lat="50.41192" lon="4.84406">
        <ele>222.2</ele>
        <time>2016-07-06T12:07:42Z</time>
      </trkpt>
      <trkpt lat="50.41201" lon="4.84425">
        <ele>222.68</ele>
        <time>2016-07-06T12:08:04Z</time>
      </trkpt>
      <trkpt lat="50.412" lon="4.84428">
        <ele>222.68</ele>
        <time>2016-07-06T12:08:33Z</time>
      </trkpt>
      <trkpt lat="50.4121" lon="4.84445">
        <ele>223.16</ele>
        <time>2016-07-06T12:08:55Z</time>
      </trkpt>
      <trkpt lat="50.4123" lon="4.84478">
        <ele>224.12</ele>
        <time>2016-07-06T12:09:20Z</time>
      </trkpt>
      <trkpt lat="50.41253" lon="4.84516">
        <ele>224.12</ele>
        <time>2016-07-06T12:09:45Z</time>
      </trkpt>
      <trkpt lat="50.41271" lon="4.84542">
        <ele>224.12</ele>
        <time>2016-07-06T12:10:07Z</time>
      </trkpt>
      <trkpt lat="50.41292" lon="4.84589">
        <ele>223.64</ele>
        <time>2016-07-06T12:10:34Z</time>
      </trkpt>
      <trkpt lat="50.41304" lon="4.8463">
        <ele>223.64</ele>
        <time>2016-07-06T12:10:59Z</time>
      </trkpt>
      <trkpt lat="50.41322" lon="4.84667">
        <ele>222.68</ele>
        <time>2016-07-06T12:11:25Z</time>
      </trkpt>
      <trkpt lat="50.41336" lon="4.84704">
        <ele>220.76</ele>
        <time>2016-07-06T12:11:55Z</time>
      </trkpt>
      <trkpt lat="50.41345" lon="4.84746">
        <ele>219.8</ele>
        <time>2016-07-06T12:12:13Z</time>
      </trkpt>
      <trkpt lat="50.41364" lon="4.84794">
        <ele>217.4</ele>
        <time>2016-07-06T12:12:40Z</time>
      </trkpt>
      <trkpt lat="50.4138" lon="4.84836">
        <ele>214.99</ele>
        <time>2016-07-06T12:13:06Z</time>
      </trkpt>
      <trkpt lat="50.4139" lon="4.84875">
        <ele>214.03</ele>
        <time>2016-07-06T12:13:29Z</time>
      </trkpt>
      <trkpt lat="50.41403" lon="4.84907">
        <ele>213.07</ele>
        <time>2016-07-06T12:13:49Z</time>
      </trkpt>
      <trkpt lat="50.4142" lon="4.84954">
        <ele>212.11</ele>
        <time>2016-07-06T12:14:17Z</time>
      </trkpt>
      <trkpt lat="50.41425" lon="4.84977">
        <ele>212.59</ele>
        <time>2016-07-06T12:14:38Z</time>
      </trkpt>
      <trkpt lat="50.41441" lon="4.85023">
        <ele>213.07</ele>
        <time>2016-07-06T12:15:05Z</time>
      </trkpt>
      <trkpt lat="50.41444" lon="4.85037">
        <ele>212.11</ele>
        <time>2016-07-06T12:15:15Z</time>
      </trkpt>
      <trkpt lat="50.41454" lon="4.8508">
        <ele>211.15</ele>
        <time>2016-07-06T12:15:40Z</time>
      </trkpt>
      <trkpt lat="50.41468" lon="4.85124">
        <ele>208.74</ele>
        <time>2016-07-06T12:16:06Z</time>
      </trkpt>
      <trkpt lat="50.41484" lon="4.85172">
        <ele>206.82</ele>
        <time>2016-07-06T12:16:33Z</time>
      </trkpt>
      <trkpt lat="50.41499" lon="4.85208">
        <ele>203.94</ele>
        <time>2016-07-06T12:16:56Z</time>
      </trkpt>
      <trkpt lat="50.41516" lon="4.85245">
        <ele>201.53</ele>
        <time>2016-07-06T12:17:22Z</time>
      </trkpt>
      <trkpt lat="50.41514" lon="4.85243">
        <ele>201.53</ele>
        <time>2016-07-06T12:17:45Z</time>
      </trkpt>
      <trkpt lat="50.41522" lon="4.85264">
        <ele>200.57</ele>
        <time>2016-07-06T12:18:07Z</time>
      </trkpt>
      <trkpt lat="50.41536" lon="4.85301">
        <ele>197.21</ele>
        <time>2016-07-06T12:18:33Z</time>
      </trkpt>
      <trkpt lat="50.4155" lon="4.85327">
        <ele>193.84</ele>
        <time>2016-07-06T12:18:55Z</time>
      </trkpt>
      <trkpt lat="50.41555" lon="4.85334">
        <ele>192.4</ele>
        <time>2016-07-06T12:19:02Z</time>
      </trkpt>
      <trkpt lat="50.41571" lon="4.85363">
        <ele>189.04</ele>
        <time>2016-07-06T12:19:25Z</time>
      </trkpt>
      <trkpt lat="50.41589" lon="4.85391">
        <ele>186.15</ele>
        <time>2016-07-06T12:19:46Z</time>
      </trkpt>
      <trkpt lat="50.416" lon="4.85415">
        <ele>182.79</ele>
        <time>2016-07-06T12:20:04Z</time>
      </trkpt>
      <trkpt lat="50.41614" lon="4.85447">
        <ele>179.9</ele>
        <time>2016-07-06T12:20:26Z</time>
      </trkpt>
      <trkpt lat="50.41628" lon="4.85476">
        <ele>176.54</ele>
        <time>2016-07-06T12:20:46Z</time>
      </trkpt>
      <trkpt lat="50.41637" lon="4.855">
        <ele>173.66</ele>
        <time>2016-07-06T12:21:06Z</time>
      </trkpt>
      <trkpt lat="50.41645" lon="4.85528">
        <ele>170.77</ele>
        <time>2016-07-06T12:21:26Z</time>
      </trkpt>
      <trkpt lat="50.41657" lon="4.85564">
        <ele>168.37</ele>
        <time>2016-07-06T12:21:49Z</time>
      </trkpt>
      <trkpt lat="50.41672" lon="4.85599">
        <ele>165.48</ele>
        <time>2016-07-06T12:22:15Z</time>
      </trkpt>
      <trkpt lat="50.41695" lon="4.85641">
        <ele>162.12</ele>
        <time>2016-07-06T12:22:41Z</time>
      </trkpt>
      <trkpt lat="50.41704" lon="4.85662">
        <ele>158.75</ele>
        <time>2016-07-06T12:22:56Z</time>
      </trkpt>
      <trkpt lat="50.41724" lon="4.85704">
        <ele>157.31</ele>
        <time>2016-07-06T12:23:24Z</time>
      </trkpt>
      <trkpt lat="50.41743" lon="4.85739">
        <ele>155.87</ele>
        <time>2016-07-06T12:23:50Z</time>
      </trkpt>
      <trkpt lat="50.41757" lon="4.85773">
        <ele>152.99</ele>
        <time>2016-07-06T12:24:15Z</time>
      </trkpt>
      <trkpt lat="50.41759" lon="4.85809">
        <ele>151.54</ele>
        <time>2016-07-06T12:24:36Z</time>
      </trkpt>
      <trkpt lat="50.41761" lon="4.85855">
        <ele>148.18</ele>
        <time>2016-07-06T12:25:03Z</time>
      </trkpt>
      <trkpt lat="50.4176" lon="4.8591">
        <ele>145.3</ele>
        <time>2016-07-06T12:25:31Z</time>
      </trkpt>
      <trkpt lat="50.41762" lon="4.85956">
        <ele>141.93</ele>
        <time>2016-07-06T12:25:56Z</time>
      </trkpt>
      <trkpt lat="50.41777" lon="4.86">
        <ele>140.97</ele>
        <time>2016-07-06T12:26:23Z</time>
      </trkpt>
      <trkpt lat="50.41785" lon="4.86037">
        <ele>139.53</ele>
        <time>2016-07-06T12:26:49Z</time>
      </trkpt>
      <trkpt lat="50.41801" lon="4.86032">
        <ele>139.53</ele>
        <time>2016-07-06T12:27:05Z</time>
      </trkpt>
      <trkpt lat="50.41831" lon="4.86009">
        <ele>141.45</ele>
        <time>2016-07-06T12:27:32Z</time>
      </trkpt>
      <trkpt lat="50.41855" lon="4.85989">
        <ele>141.93</ele>
        <time>2016-07-06T12:27:54Z</time>
      </trkpt>
      <trkpt lat="50.41884" lon="4.85975">
        <ele>142.89</ele>
        <time>2016-07-06T12:28:18Z</time>
      </trkpt>
      <trkpt lat="50.41911" lon="4.8597">
        <ele>142.89</ele>
        <time>2016-07-06T12:28:41Z</time>
      </trkpt>
      <trkpt lat="50.41932" lon="4.85966">
        <ele>143.85</ele>
        <time>2016-07-06T12:29:06Z</time>
      </trkpt>
      <trkpt lat="50.41956" lon="4.85947">
        <ele>143.37</ele>
        <time>2016-07-06T12:29:27Z</time>
      </trkpt>
      <trkpt lat="50.41976" lon="4.85907">
        <ele>143.85</ele>
        <time>2016-07-06T12:29:52Z</time>
      </trkpt>
      <trkpt lat="50.42" lon="4.8588">
        <ele>144.34</ele>
        <time>2016-07-06T12:30:19Z</time>
      </trkpt>
      <trkpt lat="50.42019" lon="4.85847">
        <ele>145.3</ele>
        <time>2016-07-06T12:30:42Z</time>
      </trkpt>
      <trkpt lat="50.42042" lon="4.85825">
        <ele>146.26</ele>
        <time>2016-07-06T12:31:03Z</time>
      </trkpt>
      <trkpt lat="50.42065" lon="4.85843">
        <ele>146.74</ele>
        <time>2016-07-06T12:31:25Z</time>
      </trkpt>
      <trkpt lat="50.4209" lon="4.85877">
        <ele>146.74</ele>
        <time>2016-07-06T12:31:53Z</time>
      </trkpt>
      <trkpt lat="50.42106" lon="4.85902">
        <ele>147.22</ele>
        <time>2016-07-06T12:32:10Z</time>
      </trkpt>
      <trkpt lat="50.42129" lon="4.85931">
        <ele>147.7</ele>
        <time>2016-07-06T12:32:33Z</time>
      </trkpt>
      <trkpt lat="50.42142" lon="4.8591">
        <ele>148.66</ele>
        <time>2016-07-06T12:32:53Z</time>
      </trkpt>
      <trkpt lat="50.42138" lon="4.85888">
        <ele>149.14</ele>
        <time>2016-07-06T12:33:13Z</time>
      </trkpt>
      <trkpt lat="50.42136" lon="4.85882">
        <ele>148.18</ele>
        <time>2016-07-06T12:33:38Z</time>
      </trkpt>
      <trkpt lat="50.42143" lon="4.85871">
        <ele>149.62</ele>
        <time>2016-07-06T12:33:52Z</time>
      </trkpt>
      <trkpt lat="50.42142" lon="4.85835">
        <ele>149.62</ele>
        <time>2016-07-06T12:34:12Z</time>
      </trkpt>
      <trkpt lat="50.42145" lon="4.8579">
        <ele>149.62</ele>
        <time>2016-07-06T12:34:36Z</time>
      </trkpt>
      <trkpt lat="50.42151" lon="4.85748">
        <ele>150.58</ele>
        <time>2016-07-06T12:34:58Z</time>
      </trkpt>
      <trkpt lat="50.42155" lon="4.85703">
        <ele>151.54</ele>
        <time>2016-07-06T12:35:21Z</time>
      </trkpt>
      <trkpt lat="50.42155" lon="4.85702">
        <ele>150.1</ele>
        <time>2016-07-06T12:35:22Z</time>
      </trkpt>
      <trkpt lat="50.4216" lon="4.85664">
        <ele>151.06</ele>
        <time>2016-07-06T12:35:46Z</time>
      </trkpt>
      <trkpt lat="50.42157" lon="4.85634">
        <ele>150.1</ele>
        <time>2016-07-06T12:36:08Z</time>
      </trkpt>
      <trkpt lat="50.4214" lon="4.85595">
        <ele>149.62</ele>
        <time>2016-07-06T12:36:33Z</time>
      </trkpt>
      <trkpt lat="50.4212" lon="4.85583">
        <ele>149.62</ele>
        <time>2016-07-06T12:36:54Z</time>
      </trkpt>
      <trkpt lat="50.4212" lon="4.85582">
        <ele>150.58</ele>
        <time>2016-07-06T12:36:56Z</time>
      </trkpt>
      <trkpt lat="50.42097" lon="4.85586">
        <ele>149.62</ele>
        <time>2016-07-06T13:00:49Z</time>
      </trkpt>
      <trkpt lat="50.42132" lon="4.85579">
        <ele>149.14</ele>
        <time>2016-07-06T13:01:10Z</time>
      </trkpt>
      <trkpt lat="50.42141" lon="4.85588">
        <ele>149.14</ele>
        <time>2016-07-06T13:01:36Z</time>
      </trkpt>
      <trkpt lat="50.4216" lon="4.85618">
        <ele>149.14</ele>
        <time>2016-07-06T13:02:01Z</time>
      </trkpt>
      <trkpt lat="50.42168" lon="4.85637">
        <ele>150.58</ele>
        <time>2016-07-06T13:02:18Z</time>
      </trkpt>
      <trkpt lat="50.42162" lon="4.85675">
        <ele>151.06</ele>
        <time>2016-07-06T13:02:44Z</time>
      </trkpt>
      <trkpt lat="50.4216" lon="4.85707">
        <ele>151.06</ele>
        <time>2016-07-06T13:03:08Z</time>
      </trkpt>
      <trkpt lat="50.42156" lon="4.8575">
        <ele>151.06</ele>
        <time>2016-07-06T13:03:33Z</time>
      </trkpt>
      <trkpt lat="50.4215" lon="4.85788">
        <ele>149.62</ele>
        <time>2016-07-06T13:03:52Z</time>
      </trkpt>
      <trkpt lat="50.42148" lon="4.85835">
        <ele>148.66</ele>
        <time>2016-07-06T13:04:22Z</time>
      </trkpt>
      <trkpt lat="50.42152" lon="4.85836">
        <ele>150.58</ele>
        <time>2016-07-06T13:04:31Z</time>
      </trkpt>
      <trkpt lat="50.42172" lon="4.85813">
        <ele>150.58</ele>
        <time>2016-07-06T13:04:52Z</time>
      </trkpt>
      <trkpt lat="50.42193" lon="4.85799">
        <ele>152.03</ele>
        <time>2016-07-06T13:05:15Z</time>
      </trkpt>
      <trkpt lat="50.42205" lon="4.8579">
        <ele>152.51</ele>
        <time>2016-07-06T13:05:23Z</time>
      </trkpt>
      <trkpt lat="50.4223" lon="4.85768">
        <ele>153.47</ele>
        <time>2016-07-06T13:05:47Z</time>
      </trkpt>
      <trkpt lat="50.42254" lon="4.85751">
        <ele>154.43</ele>
        <time>2016-07-06T13:06:10Z</time>
      </trkpt>
      <trkpt lat="50.4228" lon="4.85741">
        <ele>154.91</ele>
        <time>2016-07-06T13:06:31Z</time>
      </trkpt>
      <trkpt lat="50.42311" lon="4.85727">
        <ele>156.35</ele>
        <time>2016-07-06T13:06:58Z</time>
      </trkpt>
      <trkpt lat="50.42344" lon="4.85717">
        <ele>156.83</ele>
        <time>2016-07-06T13:07:24Z</time>
      </trkpt>
      <trkpt lat="50.42374" lon="4.85704">
        <ele>158.27</ele>
        <time>2016-07-06T13:07:50Z</time>
      </trkpt>
      <trkpt lat="50.42405" lon="4.85692">
        <ele>159.24</ele>
        <time>2016-07-06T13:08:16Z</time>
      </trkpt>
      <trkpt lat="50.42436" lon="4.85682">
        <ele>160.68</ele>
        <time>2016-07-06T13:08:39Z</time>
      </trkpt>
      <trkpt lat="50.42456" lon="4.85689">
        <ele>161.16</ele>
        <time>2016-07-06T13:09:01Z</time>
      </trkpt>
      <trkpt lat="50.42464" lon="4.85731">
        <ele>162.12</ele>
        <time>2016-07-06T13:09:21Z</time>
      </trkpt>
      <trkpt lat="50.42475" lon="4.85789">
        <ele>162.6</ele>
        <time>2016-07-06T13:09:54Z</time>
      </trkpt>
      <trkpt lat="50.42478" lon="4.85838">
        <ele>162.6</ele>
        <time>2016-07-06T13:10:20Z</time>
      </trkpt>
      <trkpt lat="50.42483" lon="4.85885">
        <ele>162.6</ele>
        <time>2016-07-06T13:10:47Z</time>
      </trkpt>
      <trkpt lat="50.42486" lon="4.85928">
        <ele>162.6</ele>
        <time>2016-07-06T13:11:10Z</time>
      </trkpt>
      <trkpt lat="50.42493" lon="4.85979">
        <ele>161.16</ele>
        <time>2016-07-06T13:11:37Z</time>
      </trkpt>
      <trkpt lat="50.42504" lon="4.86025">
        <ele>160.2</ele>
        <time>2016-07-06T13:12:03Z</time>
      </trkpt>
      <trkpt lat="50.42516" lon="4.86069">
        <ele>159.72</ele>
        <time>2016-07-06T13:12:29Z</time>
      </trkpt>
      <trkpt lat="50.42531" lon="4.86123">
        <ele>158.75</ele>
        <time>2016-07-06T13:12:55Z</time>
      </trkpt>
      <trkpt lat="50.42542" lon="4.86162">
        <ele>157.79</ele>
        <time>2016-07-06T13:13:18Z</time>
      </trkpt>
      <trkpt lat="50.42547" lon="4.86177">
        <ele>157.31</ele>
        <time>2016-07-06T13:13:27Z</time>
      </trkpt>
      <trkpt lat="50.42553" lon="4.86232">
        <ele>154.43</ele>
        <time>2016-07-06T13:13:56Z</time>
      </trkpt>
      <trkpt lat="50.42559" lon="4.86277">
        <ele>151.54</ele>
        <time>2016-07-06T13:14:21Z</time>
      </trkpt>
      <trkpt lat="50.4256" lon="4.86311">
        <ele>149.62</ele>
        <time>2016-07-06T13:14:44Z</time>
      </trkpt>
      <trkpt lat="50.42559" lon="4.86353">
        <ele>146.26</ele>
        <time>2016-07-06T13:15:10Z</time>
      </trkpt>
      <trkpt lat="50.42552" lon="4.86389">
        <ele>143.85</ele>
        <time>2016-07-06T13:15:32Z</time>
      </trkpt>
      <trkpt lat="50.42539" lon="4.86427">
        <ele>141.45</ele>
        <time>2016-07-06T13:15:55Z</time>
      </trkpt>
      <trkpt lat="50.42521" lon="4.86449">
        <ele>139.05</ele>
        <time>2016-07-06T13:16:17Z</time>
      </trkpt>
      <trkpt lat="50.42498" lon="4.8647">
        <ele>137.61</ele>
        <time>2016-07-06T13:16:42Z</time>
      </trkpt>
      <trkpt lat="50.42468" lon="4.86503">
        <ele>135.68</ele>
        <time>2016-07-06T13:17:08Z</time>
      </trkpt>
      <trkpt lat="50.42443" lon="4.8653">
        <ele>135.2</ele>
        <time>2016-07-06T13:17:32Z</time>
      </trkpt>
      <trkpt lat="50.42424" lon="4.8654">
        <ele>135.2</ele>
        <time>2016-07-06T13:17:54Z</time>
      </trkpt>
      <trkpt lat="50.42412" lon="4.86547">
        <ele>135.2</ele>
        <time>2016-07-06T13:18:03Z</time>
      </trkpt>
      <trkpt lat="50.42385" lon="4.86565">
        <ele>134.72</ele>
        <time>2016-07-06T13:18:29Z</time>
      </trkpt>
      <trkpt lat="50.42363" lon="4.8658">
        <ele>134.72</ele>
        <time>2016-07-06T13:18:52Z</time>
      </trkpt>
      <trkpt lat="50.42329" lon="4.86595">
        <ele>133.76</ele>
        <time>2016-07-06T13:19:17Z</time>
      </trkpt>
      <trkpt lat="50.42294" lon="4.86607">
        <ele>132.32</ele>
        <time>2016-07-06T13:19:42Z</time>
      </trkpt>
      <trkpt lat="50.42268" lon="4.86618">
        <ele>130.4</ele>
        <time>2016-07-06T13:20:05Z</time>
      </trkpt>
      <trkpt lat="50.42237" lon="4.86625">
        <ele>128.95</ele>
        <time>2016-07-06T13:20:31Z</time>
      </trkpt>
      <trkpt lat="50.42219" lon="4.86634">
        <ele>128.47</ele>
        <time>2016-07-06T13:20:51Z</time>
      </trkpt>
      <trkpt lat="50.42189" lon="4.86641">
        <ele>128.47</ele>
        <time>2016-07-06T13:21:15Z</time>
      </trkpt>
      <trkpt lat="50.42166" lon="4.86651">
        <ele>128.47</ele>
        <time>2016-07-06T13:21:35Z</time>
      </trkpt>
      <trkpt lat="50.42146" lon="4.86655">
        <ele>127.03</ele>
        <time>2016-07-06T13:21:57Z</time>
      </trkpt>
      <trkpt lat="50.42121" lon="4.86656">
        <ele>126.55</ele>
        <time>2016-07-06T13:22:17Z</time>
      </trkpt>
      <trkpt lat="50.4211" lon="4.86626">
        <ele>126.55</ele>
        <time>2016-07-06T13:22:41Z</time>
      </trkpt>
      <trkpt lat="50.42101" lon="4.86603">
        <ele>123.67</ele>
        <time>2016-07-06T13:23:04Z</time>
      </trkpt>
      <trkpt lat="50.42079" lon="4.86622">
        <ele>121.74</ele>
        <time>2016-07-06T13:23:27Z</time>
      </trkpt>
      <trkpt lat="50.42052" lon="4.86631">
        <ele>119.82</ele>
        <time>2016-07-06T13:23:50Z</time>
      </trkpt>
      <trkpt lat="50.42029" lon="4.86633">
        <ele>118.38</ele>
        <time>2016-07-06T13:24:14Z</time>
      </trkpt>
      <trkpt lat="50.42018" lon="4.86658">
        <ele>116.46</ele>
        <time>2016-07-06T13:24:36Z</time>
      </trkpt>
      <trkpt lat="50.42006" lon="4.86711">
        <ele>114.53</ele>
        <time>2016-07-06T13:25:01Z</time>
      </trkpt>
      <trkpt lat="50.41999" lon="4.86754">
        <ele>112.61</ele>
        <time>2016-07-06T13:25:25Z</time>
      </trkpt>
      <trkpt lat="50.41996" lon="4.86805">
        <ele>112.13</ele>
        <time>2016-07-06T13:25:47Z</time>
      </trkpt>
      <trkpt lat="50.41994" lon="4.86838">
        <ele>111.65</ele>
        <time>2016-07-06T13:26:09Z</time>
      </trkpt>
      <trkpt lat="50.41994" lon="4.8685">
        <ele>111.65</ele>
        <time>2016-07-06T13:26:30Z</time>
      </trkpt>
      <trkpt lat="50.41996" lon="4.86848">
        <ele>111.65</ele>
        <time>2016-07-06T13:26:58Z</time>
      </trkpt>
      <trkpt lat="50.41995" lon="4.86854">
        <ele>113.09</ele>
        <time>2016-07-06T13:27:13Z</time>
      </trkpt>
      <trkpt lat="50.42002" lon="4.86877">
        <ele>113.57</ele>
        <time>2016-07-06T13:27:25Z</time>
      </trkpt>
      <trkpt lat="50.42003" lon="4.86881">
        <ele>115.5</ele>
        <time>2016-07-06T13:27:27Z</time>
      </trkpt>
      <trkpt lat="50.42003" lon="4.86884">
        <ele>112.61</ele>
        <time>2016-07-06T13:27:29Z</time>
      </trkpt>
      <trkpt lat="50.42007" lon="4.86926">
        <ele>112.61</ele>
        <time>2016-07-06T13:27:50Z</time>
      </trkpt>
      <trkpt lat="50.42008" lon="4.86953">
        <ele>114.05</ele>
        <time>2016-07-06T13:28:04Z</time>
      </trkpt>
      <trkpt lat="50.41996" lon="4.86986">
        <ele>115.5</ele>
        <time>2016-07-06T13:28:25Z</time>
      </trkpt>
      <trkpt lat="50.41975" lon="4.87005">
        <ele>115.98</ele>
        <time>2016-07-06T13:28:46Z</time>
      </trkpt>
      <trkpt lat="50.41962" lon="4.87036">
        <ele>116.94</ele>
        <time>2016-07-06T13:29:09Z</time>
      </trkpt>
      <trkpt lat="50.4196" lon="4.87058">
        <ele>116.46</ele>
        <time>2016-07-06T13:29:24Z</time>
      </trkpt>
      <trkpt lat="50.41966" lon="4.87105">
        <ele>115.5</ele>
        <time>2016-07-06T13:29:48Z</time>
      </trkpt>
      <trkpt lat="50.41967" lon="4.87127">
        <ele>115.01</ele>
        <time>2016-07-06T13:30:00Z</time>
      </trkpt>
      <trkpt lat="50.41952" lon="4.87137">
        <ele>115.01</ele>
        <time>2016-07-06T13:30:13Z</time>
      </trkpt>
      <trkpt lat="50.41948" lon="4.87142">
        <ele>115.01</ele>
        <time>2016-07-06T13:30:27Z</time>
      </trkpt>
      <trkpt lat="50.41941" lon="4.87148">
        <ele>115.98</ele>
        <time>2016-07-06T13:30:48Z</time>
      </trkpt>
      <trkpt lat="50.41935" lon="4.87152">
        <ele>116.46</ele>
        <time>2016-07-06T13:31:13Z</time>
      </trkpt>
      <trkpt lat="50.4193" lon="4.87149">
        <ele>116.46</ele>
        <time>2016-07-06T13:31:26Z</time>
      </trkpt>
      <trkpt lat="50.41925" lon="4.87149">
        <ele>116.46</ele>
        <time>2016-07-06T13:31:44Z</time>
      </trkpt>
      <trkpt lat="50.41923" lon="4.87148">
        <ele>116.46</ele>
        <time>2016-07-06T13:32:02Z</time>
      </trkpt>
      <trkpt lat="50.41924" lon="4.87153">
        <ele>116.46</ele>
        <time>2016-07-06T13:32:15Z</time>
      </trkpt>
      <trkpt lat="50.41924" lon="4.87155">
        <ele>116.46</ele>
        <time>2016-07-06T13:32:36Z</time>
      </trkpt>
      <trkpt lat="50.41924" lon="4.87153">
        <ele>116.46</ele>
        <time>2016-07-06T13:32:59Z</time>
      </trkpt>
      <trkpt lat="50.41924" lon="4.87154">
        <ele>116.46</ele>
        <time>2016-07-06T13:33:23Z</time>
      </trkpt>
      <trkpt lat="50.41921" lon="4.87153">
        <ele>116.46</ele>
        <time>2016-07-06T13:33:43Z</time>
      </trkpt>
      <trkpt lat="50.41923" lon="4.87154">
        <ele>116.46</ele>
        <time>2016-07-06T13:34:10Z</time>
      </trkpt>
      <trkpt lat="50.41922" lon="4.87149">
        <ele>116.46</ele>
        <time>2016-07-06T13:34:47Z</time>
      </trkpt>
      <trkpt lat="50.41924" lon="4.8715">
        <ele>116.46</ele>
        <time>2016-07-06T13:35:16Z</time>
      </trkpt>
      <trkpt lat="50.41924" lon="4.87152">
        <ele>116.46</ele>
        <time>2016-07-06T13:35:46Z</time>
      </trkpt>
      <trkpt lat="50.41923" lon="4.87152">
        <ele>115.01</ele>
        <time>2016-07-06T13:35:49Z</time>
      </trkpt>
      <trkpt lat="50.41924" lon="4.87155">
        <ele>116.46</ele>
        <time>2016-07-06T13:36:04Z</time>
      </trkpt>
      <trkpt lat="50.41925" lon="4.87153">
        <ele>116.46</ele>
        <time>2016-07-06T13:36:35Z</time>
      </trkpt>
      <trkpt lat="50.41925" lon="4.87152">
        <ele>116.46</ele>
        <time>2016-07-06T13:37:10Z</time>
      </trkpt>
      <trkpt lat="50.41925" lon="4.87151">
        <ele>116.46</ele>
        <time>2016-07-06T13:37:28Z</time>
      </trkpt>
      <trkpt lat="50.41925" lon="4.87152">
        <ele>116.46</ele>
        <time>2016-07-06T13:37:47Z</time>
      </trkpt>
      <trkpt lat="50.41926" lon="4.87152">
        <ele>115.01</ele>
        <time>2016-07-06T13:37:53Z</time>
      </trkpt>
      <trkpt lat="50.41925" lon="4.87154">
        <ele>115.01</ele>
        <time>2016-07-06T13:38:21Z</time>
      </trkpt>
    </trkseg>
  </trk>
</gpx>